KLM887 EHAM-VHHH
Flight info
| Callsign | KLM887 |
|---|---|
| Flight time | 12h 10m |
| Altitude | 33000 |
| Route | ARNEM L620 HMM DCT NOMKA DCT OMELO DCT ODLIV DCT OMIFU DCT SAGAN DCT ETNOG DCT ROMAG DCT UDROS UM859 KARDE UL851 TBN UM11 REBLO M11 LUSAL N199 RASAM L88 METKA B476 DARVA/K0907F330 T898 OGOLI N193 SR L163 TISIB L141 KAMUD/K0906S1005 W186 SADAN Y1 OMBON W245 OVRAL B330 KWE W181 DUDIT A599 POU R473 SIERA |
| Aircraft | B77W/H-SDE1E2E3FGHIJ2J3J4J5M1RWXY/LB1D1 |
Departure
| Time | 2026-04-29 22:16 |
|---|---|
| Airport | Amsterdam Airport Schiphol (EHAM) |
Arrival
| Time | 2026-04-30 10:27 |
|---|---|
| Airport | Hong Kong International Airport (VHHH) |
| Time | Latitude | Longitude | Altitude | Speed | Heading |
|---|---|---|---|---|---|
| 2026-04-29 21:48 | 52.31383 | 4.76726 | 4 ft | 0 kts | 123° |
| 2026-04-29 22:05 | 52.31383 | 4.76725 | 3 ft | 0 kts | 123° |
| 2026-04-29 22:08 | 52.31397 | 4.76700 | 5 ft | 4 kts | 106° |
| 2026-04-29 22:08 | 52.31398 | 4.76667 | 5 ft | 3 kts | 73° |
| 2026-04-29 22:09 | 52.31395 | 4.76633 | 6 ft | 3 kts | 92° |
| 2026-04-29 22:09 | 52.31394 | 4.76598 | 6 ft | 2 kts | 63° |
| 2026-04-29 22:09 | 52.31378 | 4.76568 | 5 ft | 3 kts | 29° |
| 2026-04-29 22:09 | 52.31366 | 4.76557 | 6 ft | 0 kts | 34° |
| 2026-04-29 22:11 | 52.31377 | 4.76569 | 5 ft | 6 kts | 34° |
| 2026-04-29 22:12 | 52.31426 | 4.76546 | 4 ft | 9 kts | 301° |
| 2026-04-29 22:12 | 52.31459 | 4.76460 | 4 ft | 9 kts | 303° |
| 2026-04-29 22:12 | 52.31502 | 4.76355 | 4 ft | 13 kts | 303° |
| 2026-04-29 22:12 | 52.31538 | 4.76222 | 4 ft | 13 kts | 268° |
| 2026-04-29 22:13 | 52.31532 | 4.76041 | 4 ft | 19 kts | 267° |
| 2026-04-29 22:13 | 52.31524 | 4.75826 | 4 ft | 19 kts | 266° |
| 2026-04-29 22:13 | 52.31517 | 4.75611 | 4 ft | 19 kts | 266° |
| 2026-04-29 22:13 | 52.31509 | 4.75396 | 3 ft | 19 kts | 266° |
| 2026-04-29 22:14 | 52.31501 | 4.75181 | 3 ft | 19 kts | 266° |
| 2026-04-29 22:14 | 52.31494 | 4.74966 | 4 ft | 19 kts | 267° |
| 2026-04-29 22:14 | 52.31488 | 4.74753 | 4 ft | 17 kts | 269° |
| 2026-04-29 22:14 | 52.31562 | 4.74664 | 4 ft | 15 kts | 354° |
| 2026-04-29 22:15 | 52.31653 | 4.74689 | 4 ft | 9 kts | 34° |
| 2026-04-29 22:15 | 52.31666 | 4.74735 | 4 ft | 4 kts | 71° |
| 2026-04-29 22:15 | 52.31666 | 4.74756 | 4 ft | 1 kts | 87° |
| 2026-04-29 22:15 | 52.31676 | 4.75046 | 1 ft | 62 kts | 87° |
| 2026-04-29 22:16 | 52.31713 | 4.76169 | 4 ft | 134 kts | 87° |
| 2026-04-29 22:16 | 52.31774 | 4.78041 | 11 ft | 190 kts | 88° |
| 2026-04-29 22:16 | 52.31839 | 4.80278 | 443 ft | 200 kts | 86° |
| 2026-04-29 22:16 | 52.31918 | 4.82457 | 1548 ft | 175 kts | 89° |
| 2026-04-29 22:17 | 52.31985 | 4.84456 | 2282 ft | 182 kts | 89° |
| 2026-04-29 22:17 | 52.31987 | 4.86622 | 2403 ft | 200 kts | 102° |
| 2026-04-29 22:17 | 52.31498 | 4.88855 | 2654 ft | 217 kts | 114° |
| 2026-04-29 22:17 | 52.30880 | 4.91138 | 3109 ft | 227 kts | 112° |
| 2026-04-29 22:18 | 52.30241 | 4.93590 | 3669 ft | 235 kts | 112° |
| 2026-04-29 22:18 | 52.29592 | 4.96076 | 4303 ft | 239 kts | 111° |
| 2026-04-29 22:18 | 52.29061 | 4.98646 | 4907 ft | 245 kts | 105° |
| 2026-04-29 22:18 | 52.28607 | 5.01339 | 5545 ft | 248 kts | 105° |
| 2026-04-29 22:19 | 52.28154 | 5.04062 | 6229 ft | 249 kts | 104° |
| 2026-04-29 22:19 | 52.27695 | 5.06796 | 6888 ft | 251 kts | 104° |
| 2026-04-29 22:19 | 52.27217 | 5.09610 | 7230 ft | 267 kts | 104° |
| 2026-04-29 22:19 | 52.26688 | 5.12689 | 7407 ft | 289 kts | 104° |
| 2026-04-29 22:20 | 52.26124 | 5.15943 | 7763 ft | 304 kts | 104° |
| 2026-04-29 22:20 | 52.25544 | 5.19257 | 8342 ft | 311 kts | 105° |
| 2026-04-29 22:20 | 52.24935 | 5.22720 | 9031 ft | 316 kts | 104° |
| 2026-04-29 22:20 | 52.24350 | 5.26186 | 9735 ft | 318 kts | 101° |
| 2026-04-29 22:21 | 52.24051 | 5.29776 | 10411 ft | 321 kts | 94° |
| 2026-04-29 22:21 | 52.23916 | 5.33378 | 11062 ft | 323 kts | 92° |
| 2026-04-29 22:21 | 52.23792 | 5.37060 | 11769 ft | 326 kts | 92° |
| 2026-04-29 22:21 | 52.23643 | 5.40768 | 12474 ft | 330 kts | 93° |
| 2026-04-29 22:22 | 52.23467 | 5.44515 | 13223 ft | 333 kts | 93° |
| 2026-04-29 22:22 | 52.23276 | 5.48303 | 13963 ft | 337 kts | 93° |
| 2026-04-29 22:22 | 52.23067 | 5.52128 | 14623 ft | 340 kts | 96° |
| 2026-04-29 22:22 | 52.22460 | 5.55878 | 15067 ft | 349 kts | 109° |
| 2026-04-29 22:23 | 52.21514 | 5.59574 | 15602 ft | 355 kts | 109° |
| 2026-04-29 22:23 | 52.20561 | 5.63319 | 16259 ft | 359 kts | 109° |
| 2026-04-29 22:23 | 52.19612 | 5.67100 | 16910 ft | 363 kts | 109° |
| 2026-04-29 22:23 | 52.18660 | 5.70936 | 17525 ft | 368 kts | 109° |
| 2026-04-29 22:24 | 52.17701 | 5.74828 | 18130 ft | 373 kts | 109° |
| 2026-04-29 22:24 | 52.16719 | 5.78830 | 18351 ft | 389 kts | 109° |
| 2026-04-29 22:24 | 52.15702 | 5.82980 | 18698 ft | 400 kts | 109° |
| 2026-04-29 22:24 | 52.14658 | 5.87230 | 19129 ft | 407 kts | 109° |
| 2026-04-29 22:25 | 52.13600 | 5.91525 | 19723 ft | 410 kts | 108° |
| 2026-04-29 22:25 | 52.12536 | 5.95835 | 20366 ft | 411 kts | 109° |
| 2026-04-29 22:25 | 52.11466 | 6.00168 | 20932 ft | 414 kts | 109° |
| 2026-04-29 22:25 | 52.10370 | 6.04596 | 21467 ft | 419 kts | 109° |
| 2026-04-29 22:26 | 52.09358 | 6.08981 | 21964 ft | 419 kts | 103° |
| 2026-04-29 22:26 | 52.08755 | 6.13694 | 22441 ft | 421 kts | 96° |
| 2026-04-29 22:26 | 52.08340 | 6.18358 | 22930 ft | 425 kts | 96° |
| 2026-04-29 22:26 | 52.07918 | 6.23194 | 23467 ft | 428 kts | 96° |
| 2026-04-29 22:27 | 52.07475 | 6.28003 | 23994 ft | 431 kts | 96° |
| 2026-04-29 22:27 | 52.07005 | 6.32829 | 24425 ft | 434 kts | 97° |
| 2026-04-29 22:27 | 52.06512 | 6.37678 | 24898 ft | 436 kts | 97° |
| 2026-04-29 22:27 | 52.06005 | 6.42542 | 25413 ft | 437 kts | 97° |
| 2026-04-29 22:28 | 52.05492 | 6.47412 | 25890 ft | 438 kts | 97° |
| 2026-04-29 22:28 | 52.04975 | 6.52293 | 26327 ft | 440 kts | 97° |
| 2026-04-29 22:28 | 52.04453 | 6.57210 | 26742 ft | 442 kts | 97° |
| 2026-04-29 22:28 | 52.03928 | 6.62137 | 27155 ft | 444 kts | 97° |
| 2026-04-29 22:29 | 52.03578 | 6.65425 | 27431 ft | 446 kts | 97° |
| 2026-04-29 22:29 | 52.02867 | 6.72068 | 27976 ft | 448 kts | 97° |
| 2026-04-29 22:29 | 52.02316 | 6.76987 | 28360 ft | 450 kts | 99° |
| 2026-04-29 22:29 | 52.01559 | 6.81941 | 28726 ft | 454 kts | 101° |
| 2026-04-29 22:30 | 52.00750 | 6.86900 | 29091 ft | 456 kts | 101° |
| 2026-04-29 22:30 | 51.99932 | 6.91947 | 29463 ft | 457 kts | 101° |
| 2026-04-29 22:30 | 51.99143 | 6.96877 | 29795 ft | 458 kts | 101° |
| 2026-04-29 22:30 | 51.98341 | 7.01887 | 30099 ft | 460 kts | 101° |
| 2026-04-29 22:31 | 51.97535 | 7.06905 | 30405 ft | 461 kts | 101° |
| 2026-04-29 22:31 | 51.96714 | 7.11933 | 30749 ft | 460 kts | 101° |
| 2026-04-29 22:31 | 51.95834 | 7.16914 | 31128 ft | 459 kts | 103° |
| 2026-04-29 22:31 | 51.94911 | 7.21864 | 31352 ft | 461 kts | 103° |
| 2026-04-29 22:32 | 51.93968 | 7.26850 | 31391 ft | 463 kts | 103° |
| 2026-04-29 22:32 | 51.92095 | 7.36768 | 31425 ft | 457 kts | 102° |
| 2026-04-29 22:33 | 51.90252 | 7.46612 | 31426 ft | 457 kts | 102° |
| 2026-04-29 22:33 | 51.88408 | 7.56452 | 31424 ft | 457 kts | 102° |
| 2026-04-29 22:34 | 51.86554 | 7.66290 | 31425 ft | 457 kts | 102° |
| 2026-04-29 22:34 | 51.84930 | 7.76206 | 31432 ft | 454 kts | 98° |
| 2026-04-29 22:35 | 51.83611 | 7.86206 | 31440 ft | 455 kts | 97° |
| 2026-04-29 22:35 | 51.82275 | 7.96205 | 31426 ft | 455 kts | 98° |
| 2026-04-29 22:36 | 51.80920 | 8.06185 | 31430 ft | 454 kts | 98° |
| 2026-04-29 22:36 | 51.79556 | 8.16141 | 31432 ft | 454 kts | 98° |
| 2026-04-29 22:37 | 51.78184 | 8.26084 | 31435 ft | 453 kts | 98° |
| 2026-04-29 22:37 | 51.76804 | 8.36017 | 31428 ft | 453 kts | 98° |
| 2026-04-29 22:38 | 51.75652 | 8.44261 | 31426 ft | 452 kts | 98° |
| 2026-04-29 22:38 | 51.74261 | 8.54154 | 31428 ft | 452 kts | 98° |
| 2026-04-29 22:39 | 51.72864 | 8.64031 | 31430 ft | 451 kts | 98° |
| 2026-04-29 22:39 | 51.71459 | 8.73896 | 31431 ft | 451 kts | 98° |
| 2026-04-29 22:40 | 51.70046 | 8.83758 | 31436 ft | 452 kts | 98° |
| 2026-04-29 22:40 | 51.68623 | 8.93614 | 31434 ft | 451 kts | 98° |
| 2026-04-29 22:41 | 51.67194 | 9.03451 | 31439 ft | 451 kts | 98° |
| 2026-04-29 22:41 | 51.65757 | 9.13288 | 31444 ft | 451 kts | 98° |
| 2026-04-29 22:42 | 51.64314 | 9.23099 | 31449 ft | 451 kts | 98° |
| 2026-04-29 22:42 | 51.62862 | 9.32917 | 31456 ft | 451 kts | 98° |
| 2026-04-29 22:43 | 51.61401 | 9.42725 | 31440 ft | 451 kts | 98° |
| 2026-04-29 22:43 | 51.59929 | 9.52542 | 31438 ft | 452 kts | 98° |
| 2026-04-29 22:44 | 51.58449 | 9.62363 | 31439 ft | 452 kts | 98° |
| 2026-04-29 22:44 | 51.56959 | 9.72189 | 31448 ft | 452 kts | 98° |
| 2026-04-29 22:45 | 51.55464 | 9.81982 | 31450 ft | 451 kts | 98° |
| 2026-04-29 22:45 | 51.53961 | 9.91760 | 31451 ft | 450 kts | 98° |
| 2026-04-29 22:46 | 51.52456 | 10.01500 | 31447 ft | 449 kts | 98° |
| 2026-04-29 22:46 | 51.50948 | 10.11207 | 31467 ft | 448 kts | 98° |
| 2026-04-29 22:47 | 51.49430 | 10.20919 | 31466 ft | 449 kts | 98° |
| 2026-04-29 22:47 | 51.47904 | 10.30623 | 31457 ft | 449 kts | 98° |
| 2026-04-29 22:48 | 51.46370 | 10.40322 | 31453 ft | 449 kts | 98° |
| 2026-04-29 22:48 | 51.44829 | 10.50013 | 31458 ft | 449 kts | 98° |
| 2026-04-29 22:49 | 51.43290 | 10.59705 | 31474 ft | 448 kts | 98° |
| 2026-04-29 22:49 | 51.41766 | 10.69329 | 31484 ft | 448 kts | 98° |
| 2026-04-29 22:50 | 51.40226 | 10.78994 | 31471 ft | 448 kts | 98° |
| 2026-04-29 22:50 | 51.38677 | 10.88645 | 31469 ft | 447 kts | 98° |
| 2026-04-29 22:51 | 51.37123 | 10.98269 | 31474 ft | 446 kts | 98° |
| 2026-04-29 22:51 | 51.34768 | 11.12767 | 31470 ft | 447 kts | 98° |
| 2026-04-29 22:52 | 51.33194 | 11.22372 | 31480 ft | 447 kts | 98° |
| 2026-04-29 22:52 | 51.31610 | 11.31983 | 31479 ft | 446 kts | 98° |
| 2026-04-29 22:53 | 51.30032 | 11.41515 | 31474 ft | 446 kts | 98° |
| 2026-04-29 22:53 | 51.28428 | 11.51148 | 31475 ft | 446 kts | 98° |
| 2026-04-29 22:54 | 51.26824 | 11.60725 | 31489 ft | 446 kts | 98° |
| 2026-04-29 22:54 | 51.25212 | 11.70296 | 31473 ft | 446 kts | 98° |
| 2026-04-29 22:55 | 51.23593 | 11.79857 | 31478 ft | 446 kts | 98° |
| 2026-04-29 22:55 | 51.21976 | 11.89352 | 31478 ft | 446 kts | 98° |
| 2026-04-29 22:56 | 51.20340 | 11.98907 | 31525 ft | 447 kts | 98° |
| 2026-04-29 22:56 | 51.18695 | 12.08468 | 31483 ft | 447 kts | 98° |
| 2026-04-29 22:57 | 51.17041 | 12.18024 | 31470 ft | 447 kts | 98° |
| 2026-04-29 22:57 | 51.15379 | 12.27570 | 31481 ft | 447 kts | 98° |
| 2026-04-29 22:58 | 51.13709 | 12.37114 | 31480 ft | 447 kts | 98° |
| 2026-04-29 22:58 | 51.12033 | 12.46644 | 31488 ft | 448 kts | 98° |
| 2026-04-29 22:59 | 51.10345 | 12.56187 | 31488 ft | 448 kts | 98° |
| 2026-04-29 22:59 | 51.08651 | 12.65712 | 31483 ft | 447 kts | 98° |
| 2026-04-29 23:00 | 51.06950 | 12.75227 | 31479 ft | 447 kts | 98° |
| 2026-04-29 23:00 | 51.05244 | 12.84727 | 31480 ft | 447 kts | 98° |
| 2026-04-29 23:01 | 51.03529 | 12.94228 | 31486 ft | 448 kts | 98° |
| 2026-04-29 23:01 | 51.01805 | 13.03722 | 31488 ft | 448 kts | 98° |
| 2026-04-29 23:02 | 51.00070 | 13.13228 | 31488 ft | 449 kts | 98° |
| 2026-04-29 23:02 | 50.98323 | 13.22756 | 31591 ft | 450 kts | 98° |
| 2026-04-29 23:03 | 50.97445 | 13.27527 | 31854 ft | 451 kts | 98° |
| 2026-04-29 23:03 | 50.96565 | 13.32285 | 32226 ft | 449 kts | 98° |
| 2026-04-29 23:03 | 50.95684 | 13.37040 | 32516 ft | 449 kts | 98° |
| 2026-04-29 23:03 | 50.94804 | 13.41780 | 32823 ft | 448 kts | 98° |
| 2026-04-29 23:04 | 50.93923 | 13.46514 | 33093 ft | 448 kts | 98° |
| 2026-04-29 23:04 | 50.93039 | 13.51252 | 33353 ft | 448 kts | 98° |
| 2026-04-29 23:04 | 50.91261 | 13.60770 | 33469 ft | 452 kts | 99° |
| 2026-04-29 23:05 | 50.89469 | 13.70271 | 33471 ft | 447 kts | 99° |
| 2026-04-29 23:05 | 50.87691 | 13.79669 | 33484 ft | 445 kts | 99° |
| 2026-04-29 23:06 | 50.85910 | 13.89058 | 33480 ft | 445 kts | 99° |
| 2026-04-29 23:06 | 50.83952 | 13.98375 | 33477 ft | 452 kts | 105° |
| 2026-04-29 23:07 | 50.80993 | 14.07268 | 33481 ft | 464 kts | 114° |
| 2026-04-29 23:07 | 50.77473 | 14.15844 | 33483 ft | 466 kts | 114° |
| 2026-04-29 23:08 | 50.73945 | 14.24451 | 33487 ft | 468 kts | 114° |
| 2026-04-29 23:08 | 50.70415 | 14.33107 | 33480 ft | 469 kts | 114° |
| 2026-04-29 23:09 | 50.66881 | 14.41772 | 33475 ft | 471 kts | 115° |
| 2026-04-29 23:09 | 50.63325 | 14.50458 | 33480 ft | 471 kts | 115° |
| 2026-04-29 23:10 | 50.59762 | 14.59126 | 33520 ft | 472 kts | 115° |
| 2026-04-29 23:10 | 50.56184 | 14.67809 | 33475 ft | 474 kts | 115° |
| 2026-04-29 23:11 | 50.52591 | 14.76497 | 33478 ft | 474 kts | 115° |
| 2026-04-29 23:11 | 50.48997 | 14.85161 | 33465 ft | 474 kts | 115° |
| 2026-04-29 23:12 | 50.45395 | 14.93819 | 33465 ft | 473 kts | 115° |
| 2026-04-29 23:12 | 50.41793 | 15.02466 | 33471 ft | 474 kts | 115° |
| 2026-04-29 23:13 | 50.38180 | 15.11117 | 33473 ft | 474 kts | 115° |
| 2026-04-29 23:13 | 50.34559 | 15.19758 | 33468 ft | 474 kts | 116° |
| 2026-04-29 23:14 | 50.30948 | 15.28345 | 33457 ft | 475 kts | 116° |
| 2026-04-29 23:14 | 50.27311 | 15.36966 | 33503 ft | 475 kts | 116° |
| 2026-04-29 23:15 | 50.23681 | 15.45542 | 33474 ft | 477 kts | 116° |
| 2026-04-29 23:15 | 50.20014 | 15.54179 | 33456 ft | 478 kts | 116° |
| 2026-04-29 23:16 | 50.16335 | 15.62816 | 33461 ft | 478 kts | 116° |
| 2026-04-29 23:16 | 50.12646 | 15.71446 | 33452 ft | 479 kts | 117° |
| 2026-04-29 23:17 | 50.08945 | 15.80077 | 33458 ft | 479 kts | 117° |
| 2026-04-29 23:17 | 50.05234 | 15.88709 | 33458 ft | 480 kts | 117° |
| 2026-04-29 23:18 | 50.01539 | 15.97336 | 33460 ft | 478 kts | 115° |
| 2026-04-29 23:18 | 49.98372 | 16.06320 | 33462 ft | 473 kts | 111° |
| 2026-04-29 23:19 | 49.95276 | 16.15350 | 33482 ft | 474 kts | 112° |
| 2026-04-29 23:19 | 49.92149 | 16.24377 | 33465 ft | 475 kts | 112° |
| 2026-04-29 23:20 | 49.88994 | 16.33405 | 33469 ft | 476 kts | 112° |
| 2026-04-29 23:20 | 49.85830 | 16.42413 | 33454 ft | 476 kts | 112° |
| 2026-04-29 23:21 | 49.82653 | 16.51428 | 33459 ft | 477 kts | 112° |
| 2026-04-29 23:21 | 49.80004 | 16.58923 | 33458 ft | 478 kts | 112° |
| 2026-04-29 23:22 | 49.76809 | 16.67936 | 33454 ft | 478 kts | 112° |
| 2026-04-29 23:22 | 49.73607 | 16.76933 | 33456 ft | 477 kts | 112° |
| 2026-04-29 23:23 | 49.70402 | 16.85911 | 33442 ft | 477 kts | 112° |
| 2026-04-29 23:23 | 49.67187 | 16.94886 | 33449 ft | 478 kts | 112° |
| 2026-04-29 23:24 | 49.63957 | 17.03872 | 33441 ft | 480 kts | 113° |
| 2026-04-29 23:24 | 49.60709 | 17.12875 | 33441 ft | 480 kts | 113° |
| 2026-04-29 23:25 | 49.57453 | 17.21875 | 33429 ft | 482 kts | 114° |
| 2026-04-29 23:25 | 49.54174 | 17.30900 | 33469 ft | 484 kts | 114° |
| 2026-04-29 23:26 | 49.50865 | 17.39975 | 33440 ft | 487 kts | 114° |
| 2026-04-29 23:26 | 49.47538 | 17.49071 | 33426 ft | 489 kts | 114° |
| 2026-04-29 23:27 | 49.44197 | 17.58169 | 33438 ft | 489 kts | 114° |
| 2026-04-29 23:27 | 49.40847 | 17.67260 | 33426 ft | 489 kts | 114° |
| 2026-04-29 23:28 | 49.37499 | 17.76316 | 33421 ft | 487 kts | 114° |
| 2026-04-29 23:28 | 49.34150 | 17.85344 | 33422 ft | 486 kts | 114° |
| 2026-04-29 23:29 | 49.30797 | 17.94351 | 33418 ft | 486 kts | 114° |
| 2026-04-29 23:29 | 49.27444 | 18.03331 | 33438 ft | 485 kts | 114° |
| 2026-04-29 23:30 | 49.24081 | 18.12305 | 33418 ft | 486 kts | 114° |
| 2026-04-29 23:30 | 49.20706 | 18.21279 | 33418 ft | 487 kts | 115° |
| 2026-04-29 23:31 | 49.17322 | 18.30257 | 33401 ft | 488 kts | 115° |
| 2026-04-29 23:31 | 49.13903 | 18.39262 | 33422 ft | 492 kts | 116° |
| 2026-04-29 23:32 | 49.10408 | 18.48294 | 33409 ft | 497 kts | 116° |
| 2026-04-29 23:32 | 49.06868 | 18.57382 | 33416 ft | 499 kts | 116° |
| 2026-04-29 23:33 | 49.03312 | 18.66497 | 33414 ft | 501 kts | 116° |
| 2026-04-29 23:33 | 48.99748 | 18.75616 | 33418 ft | 501 kts | 116° |
| 2026-04-29 23:34 | 48.96178 | 18.84716 | 33423 ft | 500 kts | 117° |
| 2026-04-29 23:34 | 48.92613 | 18.93778 | 33411 ft | 499 kts | 117° |
| 2026-04-29 23:35 | 48.89047 | 19.02812 | 33407 ft | 498 kts | 117° |
| 2026-04-29 23:35 | 48.85481 | 19.11811 | 33396 ft | 496 kts | 117° |
| 2026-04-29 23:36 | 48.81917 | 19.20784 | 33418 ft | 497 kts | 117° |
| 2026-04-29 23:36 | 48.78340 | 19.29757 | 33386 ft | 498 kts | 118° |
| 2026-04-29 23:37 | 48.74742 | 19.38750 | 33389 ft | 499 kts | 118° |
| 2026-04-29 23:37 | 48.71133 | 19.47736 | 33406 ft | 500 kts | 118° |
| 2026-04-29 23:38 | 48.67526 | 19.56690 | 33408 ft | 502 kts | 118° |
| 2026-04-29 23:38 | 48.63879 | 19.65712 | 33399 ft | 503 kts | 118° |
| 2026-04-29 23:39 | 48.60214 | 19.74748 | 33390 ft | 504 kts | 119° |
| 2026-04-29 23:39 | 48.56541 | 19.83772 | 33395 ft | 503 kts | 119° |
| 2026-04-29 23:40 | 48.52863 | 19.92782 | 33391 ft | 504 kts | 120° |
| 2026-04-29 23:40 | 48.49175 | 20.01784 | 33390 ft | 504 kts | 120° |
| 2026-04-29 23:41 | 48.45501 | 20.10720 | 33376 ft | 505 kts | 120° |
| 2026-04-29 23:41 | 48.41791 | 20.19715 | 33377 ft | 505 kts | 120° |
| 2026-04-29 23:42 | 48.38072 | 20.28703 | 33371 ft | 506 kts | 120° |
| 2026-04-29 23:42 | 48.34337 | 20.37701 | 33365 ft | 508 kts | 121° |
| 2026-04-29 23:43 | 48.30583 | 20.46709 | 33376 ft | 510 kts | 121° |
| 2026-04-29 23:43 | 48.26803 | 20.55753 | 33361 ft | 512 kts | 121° |
| 2026-04-29 23:44 | 48.23021 | 20.64771 | 33359 ft | 514 kts | 121° |
| 2026-04-29 23:44 | 48.19190 | 20.73874 | 33358 ft | 516 kts | 122° |
| 2026-04-29 23:45 | 48.15344 | 20.82984 | 33348 ft | 517 kts | 122° |
| 2026-04-29 23:45 | 48.11493 | 20.92073 | 33354 ft | 517 kts | 122° |
| 2026-04-29 23:46 | 48.07633 | 21.01155 | 33343 ft | 517 kts | 122° |
| 2026-04-29 23:46 | 48.03785 | 21.10175 | 33327 ft | 517 kts | 122° |
| 2026-04-29 23:47 | 47.99913 | 21.19224 | 33319 ft | 517 kts | 122° |
| 2026-04-29 23:47 | 47.96032 | 21.28265 | 33289 ft | 517 kts | 123° |
| 2026-04-29 23:48 | 47.92140 | 21.37300 | 33311 ft | 518 kts | 123° |
| 2026-04-29 23:48 | 47.88225 | 21.46354 | 33319 ft | 520 kts | 123° |
| 2026-04-29 23:49 | 47.84295 | 21.55419 | 33317 ft | 521 kts | 123° |
| 2026-04-29 23:49 | 47.80346 | 21.64498 | 33303 ft | 524 kts | 124° |
| 2026-04-29 23:50 | 47.76393 | 21.73553 | 33317 ft | 525 kts | 124° |
| 2026-04-29 23:51 | 47.70396 | 21.87238 | 33307 ft | 527 kts | 124° |
| 2026-04-29 23:51 | 47.66381 | 21.96353 | 33315 ft | 528 kts | 125° |
| 2026-04-29 23:52 | 47.61945 | 22.05029 | 33310 ft | 527 kts | 130° |
| 2026-04-29 23:52 | 47.57376 | 22.13554 | 33294 ft | 528 kts | 130° |
| 2026-04-29 23:53 | 47.52849 | 22.22066 | 33282 ft | 529 kts | 130° |
| 2026-04-29 23:53 | 47.48301 | 22.30643 | 33278 ft | 531 kts | 130° |
| 2026-04-29 23:54 | 47.43749 | 22.39297 | 33294 ft | 535 kts | 127° |
| 2026-04-29 23:54 | 47.39957 | 22.48806 | 33285 ft | 540 kts | 116° |
| 2026-04-29 23:55 | 47.36839 | 22.58858 | 33299 ft | 542 kts | 115° |
| 2026-04-29 23:55 | 47.33680 | 22.68956 | 33290 ft | 542 kts | 116° |
| 2026-04-29 23:56 | 47.30474 | 22.79021 | 33284 ft | 541 kts | 116° |
| 2026-04-29 23:56 | 47.27247 | 22.89048 | 33284 ft | 540 kts | 116° |
| 2026-04-29 23:57 | 47.24023 | 22.99019 | 33276 ft | 539 kts | 116° |
| 2026-04-29 23:57 | 47.20798 | 23.08969 | 33284 ft | 538 kts | 116° |
| 2026-04-29 23:58 | 47.17573 | 23.18885 | 33285 ft | 537 kts | 116° |
| 2026-04-29 23:58 | 47.14341 | 23.28784 | 33259 ft | 537 kts | 117° |
| 2026-04-29 23:59 | 47.11109 | 23.38649 | 33279 ft | 536 kts | 117° |
| 2026-04-29 23:59 | 47.07860 | 23.48519 | 33279 ft | 536 kts | 117° |
| 2026-04-30 00:00 | 47.04627 | 23.58304 | 33274 ft | 536 kts | 117° |
| 2026-04-30 00:00 | 47.01366 | 23.68146 | 33252 ft | 536 kts | 117° |
| 2026-04-30 00:01 | 46.98090 | 23.77984 | 33256 ft | 537 kts | 118° |
| 2026-04-30 00:01 | 46.94810 | 23.87802 | 33258 ft | 538 kts | 118° |
| 2026-04-30 00:02 | 46.91510 | 23.97642 | 33259 ft | 538 kts | 118° |
| 2026-04-30 00:02 | 46.88202 | 24.07470 | 33274 ft | 537 kts | 118° |
| 2026-04-30 00:03 | 46.84914 | 24.17204 | 33275 ft | 537 kts | 118° |
| 2026-04-30 00:03 | 46.81602 | 24.26969 | 33284 ft | 536 kts | 118° |
| 2026-04-30 00:04 | 46.78282 | 24.36722 | 33279 ft | 536 kts | 119° |
| 2026-04-30 00:04 | 46.75517 | 24.44816 | 33267 ft | 536 kts | 119° |
| 2026-04-30 00:05 | 46.72181 | 24.54551 | 33266 ft | 536 kts | 119° |
| 2026-04-30 00:05 | 46.68838 | 24.64267 | 33265 ft | 536 kts | 119° |
| 2026-04-30 00:06 | 46.65489 | 24.73964 | 33267 ft | 536 kts | 119° |
| 2026-04-30 00:06 | 46.62121 | 24.83681 | 33275 ft | 536 kts | 119° |
| 2026-04-30 00:07 | 46.58754 | 24.93364 | 33279 ft | 537 kts | 119° |
| 2026-04-30 00:07 | 46.55396 | 25.02985 | 33281 ft | 537 kts | 120° |
| 2026-04-30 00:08 | 46.52005 | 25.12663 | 33287 ft | 537 kts | 120° |
| 2026-04-30 00:08 | 46.48601 | 25.22339 | 33288 ft | 538 kts | 120° |
| 2026-04-30 00:09 | 46.45181 | 25.32030 | 33270 ft | 539 kts | 120° |
| 2026-04-30 00:09 | 46.41755 | 25.41702 | 33305 ft | 539 kts | 120° |
| 2026-04-30 00:10 | 46.38314 | 25.51378 | 33297 ft | 540 kts | 120° |
| 2026-04-30 00:10 | 46.34878 | 25.61008 | 33290 ft | 541 kts | 120° |
| 2026-04-30 00:11 | 46.31409 | 25.70697 | 33302 ft | 541 kts | 120° |
| 2026-04-30 00:11 | 46.27936 | 25.80358 | 33302 ft | 541 kts | 120° |
| 2026-04-30 00:12 | 46.24455 | 25.90009 | 33311 ft | 541 kts | 120° |
| 2026-04-30 00:12 | 46.20984 | 25.99600 | 33292 ft | 542 kts | 120° |
| 2026-04-30 00:13 | 46.17482 | 26.09240 | 33307 ft | 542 kts | 120° |
| 2026-04-30 00:13 | 46.13971 | 26.18868 | 33312 ft | 542 kts | 121° |
| 2026-04-30 00:14 | 46.10450 | 26.28492 | 33297 ft | 542 kts | 121° |
| 2026-04-30 00:14 | 46.06918 | 26.38106 | 33296 ft | 542 kts | 121° |
| 2026-04-30 00:15 | 46.03380 | 26.47705 | 33307 ft | 543 kts | 121° |
| 2026-04-30 00:15 | 45.99852 | 26.57248 | 33309 ft | 543 kts | 121° |
| 2026-04-30 00:16 | 45.96288 | 26.66846 | 33294 ft | 544 kts | 121° |
| 2026-04-30 00:16 | 45.92716 | 26.76437 | 33308 ft | 544 kts | 121° |
| 2026-04-30 00:17 | 45.89129 | 26.86034 | 33300 ft | 544 kts | 121° |
| 2026-04-30 00:17 | 45.85557 | 26.95557 | 33314 ft | 545 kts | 121° |
| 2026-04-30 00:18 | 45.81956 | 27.05126 | 33295 ft | 544 kts | 121° |
| 2026-04-30 00:18 | 45.78350 | 27.14671 | 33294 ft | 544 kts | 122° |
| 2026-04-30 00:19 | 45.74734 | 27.24209 | 33277 ft | 544 kts | 122° |
| 2026-04-30 00:19 | 45.71132 | 27.33680 | 33273 ft | 544 kts | 122° |
| 2026-04-30 00:20 | 45.67501 | 27.43193 | 33251 ft | 544 kts | 122° |
| 2026-04-30 00:20 | 45.63864 | 27.52686 | 33266 ft | 545 kts | 122° |
| 2026-04-30 00:21 | 45.60206 | 27.62202 | 33254 ft | 547 kts | 122° |
| 2026-04-30 00:21 | 45.56532 | 27.71729 | 33263 ft | 548 kts | 122° |
| 2026-04-30 00:22 | 45.52846 | 27.81253 | 33251 ft | 549 kts | 122° |
| 2026-04-30 00:22 | 45.49139 | 27.90798 | 33252 ft | 550 kts | 122° |
| 2026-04-30 00:23 | 45.45423 | 28.00334 | 33247 ft | 550 kts | 123° |
| 2026-04-30 00:23 | 45.41703 | 28.09847 | 33241 ft | 549 kts | 123° |
| 2026-04-30 00:24 | 45.37975 | 28.19348 | 33247 ft | 549 kts | 123° |
| 2026-04-30 00:24 | 45.34247 | 28.28815 | 33240 ft | 548 kts | 123° |
| 2026-04-30 00:25 | 45.30513 | 28.38267 | 33243 ft | 548 kts | 123° |
| 2026-04-30 00:25 | 45.26788 | 28.47662 | 33236 ft | 549 kts | 123° |
| 2026-04-30 00:26 | 45.23026 | 28.57119 | 33229 ft | 549 kts | 122° |
| 2026-04-30 00:26 | 45.19259 | 28.66555 | 33241 ft | 550 kts | 123° |
| 2026-04-30 00:27 | 45.15479 | 28.75994 | 33254 ft | 551 kts | 123° |
| 2026-04-30 00:27 | 45.11685 | 28.85436 | 33228 ft | 551 kts | 123° |
| 2026-04-30 00:28 | 45.07904 | 28.94812 | 33256 ft | 551 kts | 123° |
| 2026-04-30 00:28 | 45.04097 | 29.04225 | 33225 ft | 551 kts | 123° |
| 2026-04-30 00:29 | 45.00288 | 29.13609 | 33209 ft | 550 kts | 123° |
| 2026-04-30 00:29 | 44.96476 | 29.22969 | 33230 ft | 548 kts | 123° |
| 2026-04-30 00:30 | 44.92663 | 29.32298 | 33212 ft | 547 kts | 123° |
| 2026-04-30 00:30 | 44.88854 | 29.41589 | 33229 ft | 546 kts | 123° |
| 2026-04-30 00:31 | 44.85066 | 29.50799 | 33228 ft | 545 kts | 123° |
| 2026-04-30 00:31 | 44.81248 | 29.60050 | 33227 ft | 545 kts | 123° |
| 2026-04-30 00:32 | 44.77426 | 29.69279 | 33218 ft | 545 kts | 123° |
| 2026-04-30 00:32 | 44.73599 | 29.78492 | 33213 ft | 545 kts | 124° |
| 2026-04-30 00:33 | 44.69766 | 29.87688 | 33217 ft | 544 kts | 124° |
| 2026-04-30 00:33 | 44.65928 | 29.96869 | 33226 ft | 544 kts | 124° |
| 2026-04-30 00:34 | 44.62086 | 30.06027 | 33215 ft | 544 kts | 124° |
| 2026-04-30 00:34 | 44.58263 | 30.15113 | 33221 ft | 544 kts | 124° |
| 2026-04-30 00:35 | 44.54406 | 30.24247 | 33217 ft | 544 kts | 124° |
| 2026-04-30 00:35 | 44.50546 | 30.33362 | 33205 ft | 544 kts | 124° |
| 2026-04-30 00:36 | 44.46678 | 30.42466 | 33216 ft | 543 kts | 125° |
| 2026-04-30 00:36 | 44.42806 | 30.51550 | 33215 ft | 543 kts | 125° |
| 2026-04-30 00:37 | 44.38924 | 30.60629 | 33186 ft | 543 kts | 125° |
| 2026-04-30 00:37 | 44.35067 | 30.69620 | 33211 ft | 543 kts | 125° |
| 2026-04-30 00:38 | 44.31177 | 30.78659 | 33211 ft | 543 kts | 125° |
| 2026-04-30 00:38 | 44.27276 | 30.87695 | 33210 ft | 544 kts | 125° |
| 2026-04-30 00:39 | 44.23361 | 30.96736 | 33210 ft | 545 kts | 125° |
| 2026-04-30 00:39 | 44.19430 | 31.05786 | 33210 ft | 545 kts | 125° |
| 2026-04-30 00:40 | 44.15487 | 31.14834 | 33211 ft | 546 kts | 125° |
| 2026-04-30 00:40 | 44.11537 | 31.23871 | 33204 ft | 545 kts | 125° |
| 2026-04-30 00:41 | 44.07583 | 31.32888 | 33203 ft | 546 kts | 125° |
| 2026-04-30 00:41 | 44.03621 | 31.41896 | 33204 ft | 546 kts | 125° |
| 2026-04-30 00:42 | 43.99653 | 31.50887 | 33211 ft | 545 kts | 125° |
| 2026-04-30 00:42 | 43.95704 | 31.59809 | 33197 ft | 545 kts | 126° |
| 2026-04-30 00:43 | 43.91725 | 31.68772 | 33205 ft | 545 kts | 126° |
| 2026-04-30 00:43 | 43.87747 | 31.77702 | 33192 ft | 544 kts | 126° |
| 2026-04-30 00:44 | 43.83756 | 31.86636 | 33202 ft | 544 kts | 126° |
| 2026-04-30 00:44 | 43.79793 | 31.95479 | 33201 ft | 543 kts | 126° |
| 2026-04-30 00:45 | 43.75800 | 32.04362 | 33191 ft | 543 kts | 126° |
| 2026-04-30 00:45 | 43.71807 | 32.13219 | 33196 ft | 542 kts | 126° |
| 2026-04-30 00:46 | 43.67810 | 32.22058 | 33196 ft | 542 kts | 126° |
| 2026-04-30 00:46 | 43.64480 | 32.29399 | 33182 ft | 542 kts | 126° |
| 2026-04-30 00:47 | 43.60472 | 32.38213 | 33194 ft | 542 kts | 126° |
| 2026-04-30 00:47 | 43.56461 | 32.47008 | 33189 ft | 541 kts | 126° |
| 2026-04-30 00:48 | 43.52437 | 32.55801 | 33189 ft | 541 kts | 126° |
| 2026-04-30 00:48 | 43.48412 | 32.64572 | 33180 ft | 541 kts | 126° |
| 2026-04-30 00:49 | 43.44383 | 32.73328 | 33185 ft | 541 kts | 126° |
| 2026-04-30 00:49 | 43.40376 | 32.82008 | 33184 ft | 541 kts | 126° |
| 2026-04-30 00:50 | 43.36328 | 32.90749 | 33177 ft | 540 kts | 126° |
| 2026-04-30 00:50 | 43.32287 | 32.99453 | 33180 ft | 539 kts | 126° |
| 2026-04-30 00:51 | 43.28267 | 33.08082 | 33180 ft | 539 kts | 126° |
| 2026-04-30 00:51 | 43.24221 | 33.16744 | 33193 ft | 538 kts | 126° |
| 2026-04-30 00:52 | 43.20174 | 33.25383 | 33194 ft | 538 kts | 126° |
| 2026-04-30 00:52 | 43.16121 | 33.34007 | 33172 ft | 538 kts | 126° |
| 2026-04-30 00:53 | 43.12065 | 33.42614 | 33183 ft | 537 kts | 126° |
| 2026-04-30 00:53 | 43.08007 | 33.51200 | 33181 ft | 537 kts | 126° |
| 2026-04-30 00:54 | 43.03940 | 33.59780 | 33183 ft | 537 kts | 126° |
| 2026-04-30 00:54 | 42.99864 | 33.68354 | 33180 ft | 537 kts | 126° |
| 2026-04-30 00:55 | 42.95788 | 33.76905 | 33180 ft | 537 kts | 126° |
| 2026-04-30 00:55 | 42.89663 | 33.89704 | 33150 ft | 537 kts | 126° |
| 2026-04-30 00:56 | 42.85597 | 33.98173 | 33176 ft | 536 kts | 126° |
| 2026-04-30 00:56 | 42.81501 | 34.06678 | 33177 ft | 536 kts | 126° |
| 2026-04-30 00:57 | 42.77404 | 34.15161 | 33162 ft | 536 kts | 126° |
| 2026-04-30 00:57 | 42.73305 | 34.23625 | 33176 ft | 535 kts | 126° |
| 2026-04-30 00:58 | 42.69209 | 34.32058 | 33176 ft | 534 kts | 127° |
| 2026-04-30 00:58 | 42.65128 | 34.40438 | 33173 ft | 534 kts | 127° |
| 2026-04-30 00:59 | 42.61016 | 34.48856 | 33175 ft | 534 kts | 127° |
| 2026-04-30 00:59 | 42.56904 | 34.57251 | 33174 ft | 534 kts | 127° |
| 2026-04-30 01:00 | 42.52781 | 34.65645 | 33175 ft | 534 kts | 127° |
| 2026-04-30 01:00 | 42.48656 | 34.74019 | 33178 ft | 534 kts | 127° |
| 2026-04-30 01:01 | 42.44550 | 34.82332 | 33176 ft | 534 kts | 127° |
| 2026-04-30 01:01 | 42.40414 | 34.90683 | 33174 ft | 534 kts | 127° |
| 2026-04-30 01:02 | 42.36268 | 34.99029 | 33175 ft | 534 kts | 127° |
| 2026-04-30 01:02 | 42.32119 | 35.07361 | 33177 ft | 533 kts | 127° |
| 2026-04-30 01:03 | 42.27972 | 35.15665 | 33176 ft | 533 kts | 127° |
| 2026-04-30 01:03 | 42.23840 | 35.23918 | 33171 ft | 532 kts | 127° |
| 2026-04-30 01:04 | 42.19686 | 35.32193 | 33177 ft | 532 kts | 127° |
| 2026-04-30 01:04 | 42.15979 | 35.40841 | 33182 ft | 535 kts | 115° |
| 2026-04-30 01:05 | 42.13638 | 35.50357 | 33171 ft | 536 kts | 102° |
| 2026-04-30 01:05 | 42.12262 | 35.60230 | 33175 ft | 536 kts | 101° |
| 2026-04-30 01:06 | 42.10903 | 35.70050 | 33176 ft | 536 kts | 101° |
| 2026-04-30 01:06 | 42.09477 | 35.79922 | 33168 ft | 537 kts | 101° |
| 2026-04-30 01:07 | 42.08019 | 35.89774 | 33172 ft | 537 kts | 102° |
| 2026-04-30 01:07 | 42.06547 | 35.99641 | 33184 ft | 537 kts | 102° |
| 2026-04-30 01:08 | 42.05073 | 36.09490 | 33169 ft | 537 kts | 102° |
| 2026-04-30 01:08 | 42.03593 | 36.19329 | 33176 ft | 536 kts | 102° |
| 2026-04-30 01:09 | 42.02106 | 36.29156 | 33161 ft | 536 kts | 102° |
| 2026-04-30 01:09 | 42.00612 | 36.38962 | 33169 ft | 535 kts | 102° |
| 2026-04-30 01:10 | 41.99110 | 36.48768 | 33185 ft | 535 kts | 102° |
| 2026-04-30 01:10 | 41.97597 | 36.58579 | 33168 ft | 536 kts | 102° |
| 2026-04-30 01:11 | 41.96086 | 36.68327 | 33171 ft | 537 kts | 102° |
| 2026-04-30 01:11 | 41.94552 | 36.78162 | 33169 ft | 537 kts | 102° |
| 2026-04-30 01:12 | 41.93012 | 36.87979 | 33168 ft | 537 kts | 102° |
| 2026-04-30 01:12 | 41.91463 | 36.97802 | 33170 ft | 537 kts | 102° |
| 2026-04-30 01:13 | 41.89560 | 37.07495 | 33160 ft | 536 kts | 111° |
| 2026-04-30 01:13 | 41.86657 | 37.16691 | 33154 ft | 535 kts | 115° |
| 2026-04-30 01:14 | 41.83700 | 37.25849 | 33175 ft | 535 kts | 115° |
| 2026-04-30 01:14 | 41.80788 | 37.35038 | 33161 ft | 535 kts | 114° |
| 2026-04-30 01:15 | 41.77906 | 37.44170 | 33171 ft | 535 kts | 114° |
| 2026-04-30 01:15 | 41.74998 | 37.53341 | 33173 ft | 535 kts | 114° |
| 2026-04-30 01:16 | 41.72080 | 37.62504 | 33180 ft | 535 kts | 114° |
| 2026-04-30 01:16 | 41.69149 | 37.71662 | 33173 ft | 534 kts | 115° |
| 2026-04-30 01:17 | 41.66203 | 37.80813 | 33174 ft | 535 kts | 115° |
| 2026-04-30 01:17 | 41.63253 | 37.89945 | 33180 ft | 535 kts | 115° |
| 2026-04-30 01:18 | 41.60316 | 37.99017 | 33178 ft | 535 kts | 115° |
| 2026-04-30 01:18 | 41.57357 | 38.08128 | 33174 ft | 534 kts | 115° |
| 2026-04-30 01:19 | 41.54388 | 38.17236 | 33176 ft | 534 kts | 115° |
| 2026-04-30 01:19 | 41.51420 | 38.26314 | 33179 ft | 534 kts | 115° |
| 2026-04-30 01:20 | 41.48443 | 38.35388 | 33167 ft | 533 kts | 115° |
| 2026-04-30 01:20 | 41.45464 | 38.44437 | 33184 ft | 532 kts | 115° |
| 2026-04-30 01:21 | 41.42477 | 38.53483 | 33187 ft | 533 kts | 115° |
| 2026-04-30 01:21 | 41.39496 | 38.62480 | 33183 ft | 533 kts | 115° |
| 2026-04-30 01:22 | 41.36496 | 38.71508 | 33183 ft | 533 kts | 115° |
| 2026-04-30 01:22 | 41.33486 | 38.80544 | 33183 ft | 533 kts | 115° |
| 2026-04-30 01:23 | 41.30517 | 38.89586 | 33178 ft | 533 kts | 115° |
| 2026-04-30 01:23 | 41.27559 | 38.98631 | 33186 ft | 532 kts | 115° |
| 2026-04-30 01:24 | 41.24608 | 39.07598 | 33184 ft | 532 kts | 115° |
| 2026-04-30 01:24 | 41.21632 | 39.16600 | 33178 ft | 531 kts | 115° |
| 2026-04-30 01:25 | 41.18575 | 39.25526 | 33186 ft | 531 kts | 116° |
| 2026-04-30 01:25 | 41.15442 | 39.34404 | 33179 ft | 530 kts | 117° |
| 2026-04-30 01:26 | 41.12318 | 39.43277 | 33181 ft | 530 kts | 116° |
| 2026-04-30 01:26 | 41.09202 | 39.52146 | 33182 ft | 530 kts | 116° |
| 2026-04-30 01:27 | 41.06100 | 39.60957 | 33184 ft | 530 kts | 117° |
| 2026-04-30 01:27 | 41.02971 | 39.69813 | 33175 ft | 530 kts | 117° |
| 2026-04-30 01:28 | 41.00325 | 39.78924 | 33178 ft | 531 kts | 104° |
| 2026-04-30 01:28 | 40.99143 | 39.88579 | 33178 ft | 531 kts | 91° |
| 2026-04-30 01:29 | 40.99013 | 39.96688 | 33190 ft | 530 kts | 90° |
| 2026-04-30 01:29 | 40.98855 | 40.06449 | 33178 ft | 530 kts | 90° |
| 2026-04-30 01:30 | 40.98611 | 40.16226 | 33198 ft | 531 kts | 91° |
| 2026-04-30 01:30 | 40.98351 | 40.26011 | 33184 ft | 531 kts | 91° |
| 2026-04-30 01:31 | 40.98085 | 40.35786 | 33186 ft | 531 kts | 91° |
| 2026-04-30 01:31 | 40.97814 | 40.45502 | 33170 ft | 531 kts | 91° |
| 2026-04-30 01:32 | 40.97533 | 40.55261 | 33178 ft | 531 kts | 91° |
| 2026-04-30 01:32 | 40.97244 | 40.65017 | 33178 ft | 530 kts | 91° |
| 2026-04-30 01:33 | 40.96947 | 40.74767 | 33180 ft | 530 kts | 91° |
| 2026-04-30 01:33 | 40.96644 | 40.84504 | 33177 ft | 529 kts | 91° |
| 2026-04-30 01:34 | 40.96330 | 40.94227 | 33161 ft | 529 kts | 91° |
| 2026-04-30 01:34 | 40.96006 | 41.03925 | 33158 ft | 528 kts | 91° |
| 2026-04-30 01:35 | 40.95670 | 41.13635 | 33146 ft | 528 kts | 91° |
| 2026-04-30 01:35 | 40.95325 | 41.23346 | 33156 ft | 528 kts | 92° |
| 2026-04-30 01:36 | 40.94978 | 41.33053 | 33146 ft | 527 kts | 92° |
| 2026-04-30 01:36 | 40.94624 | 41.42662 | 33135 ft | 526 kts | 92° |
| 2026-04-30 01:37 | 40.94263 | 41.52320 | 33142 ft | 525 kts | 92° |
| 2026-04-30 01:37 | 40.93889 | 41.61974 | 33156 ft | 525 kts | 92° |
| 2026-04-30 01:38 | 40.93509 | 41.71622 | 33161 ft | 525 kts | 92° |
| 2026-04-30 01:38 | 40.93122 | 41.81262 | 33169 ft | 525 kts | 92° |
| 2026-04-30 01:39 | 40.92728 | 41.90905 | 33182 ft | 525 kts | 92° |
| 2026-04-30 01:39 | 40.92324 | 42.00541 | 33158 ft | 525 kts | 92° |
| 2026-04-30 01:40 | 40.91916 | 42.10115 | 33133 ft | 525 kts | 93° |
| 2026-04-30 01:40 | 40.91498 | 42.19735 | 33141 ft | 523 kts | 93° |
| 2026-04-30 01:41 | 40.91071 | 42.29322 | 33134 ft | 522 kts | 93° |
| 2026-04-30 01:41 | 40.90638 | 42.38901 | 33140 ft | 522 kts | 93° |
| 2026-04-30 01:42 | 40.90198 | 42.48477 | 33143 ft | 521 kts | 93° |
| 2026-04-30 01:42 | 40.89749 | 42.58052 | 33136 ft | 521 kts | 94° |
| 2026-04-30 01:43 | 40.89297 | 42.67557 | 33131 ft | 520 kts | 94° |
| 2026-04-30 01:43 | 40.88833 | 42.77103 | 33130 ft | 520 kts | 94° |
| 2026-04-30 01:44 | 40.88363 | 42.86647 | 33156 ft | 520 kts | 94° |
| 2026-04-30 01:44 | 40.87884 | 42.96186 | 33127 ft | 520 kts | 94° |
| 2026-04-30 01:45 | 40.87397 | 43.05720 | 33136 ft | 519 kts | 94° |
| 2026-04-30 01:45 | 40.86905 | 43.15239 | 33122 ft | 519 kts | 94° |
| 2026-04-30 01:46 | 40.86403 | 43.24765 | 33125 ft | 519 kts | 94° |
| 2026-04-30 01:46 | 40.85895 | 43.34257 | 33127 ft | 518 kts | 94° |
| 2026-04-30 01:47 | 40.85382 | 43.43701 | 33137 ft | 519 kts | 94° |
| 2026-04-30 01:47 | 40.84857 | 43.53226 | 33128 ft | 520 kts | 94° |
| 2026-04-30 01:48 | 40.84325 | 43.62756 | 33128 ft | 521 kts | 94° |
| 2026-04-30 01:48 | 40.83818 | 43.72305 | 33121 ft | 521 kts | 92° |
| 2026-04-30 01:49 | 40.83540 | 43.81871 | 33120 ft | 520 kts | 92° |
| 2026-04-30 01:49 | 40.83236 | 43.91416 | 33121 ft | 520 kts | 92° |
| 2026-04-30 01:50 | 40.82916 | 44.00891 | 33126 ft | 520 kts | 92° |
| 2026-04-30 01:50 | 40.82586 | 44.10444 | 33111 ft | 520 kts | 92° |
| 2026-04-30 01:51 | 40.82251 | 44.19995 | 33103 ft | 520 kts | 93° |
| 2026-04-30 01:51 | 40.81909 | 44.29533 | 33113 ft | 519 kts | 93° |
| 2026-04-30 01:52 | 40.81562 | 44.39011 | 33108 ft | 519 kts | 93° |
| 2026-04-30 01:52 | 40.81204 | 44.48537 | 33124 ft | 519 kts | 93° |
| 2026-04-30 01:53 | 40.80839 | 44.58064 | 33130 ft | 519 kts | 93° |
| 2026-04-30 01:53 | 40.80466 | 44.67600 | 33112 ft | 519 kts | 94° |
| 2026-04-30 01:54 | 40.80084 | 44.77118 | 33119 ft | 518 kts | 93° |
| 2026-04-30 01:54 | 40.79699 | 44.86558 | 33128 ft | 517 kts | 94° |
| 2026-04-30 01:55 | 40.79305 | 44.96028 | 33133 ft | 517 kts | 94° |
| 2026-04-30 01:55 | 40.78902 | 45.05497 | 33107 ft | 516 kts | 94° |
| 2026-04-30 01:56 | 40.78493 | 45.14962 | 33125 ft | 516 kts | 94° |
| 2026-04-30 01:56 | 40.78076 | 45.24413 | 33128 ft | 515 kts | 94° |
| 2026-04-30 01:57 | 40.77651 | 45.33860 | 33131 ft | 515 kts | 94° |
| 2026-04-30 01:57 | 40.77221 | 45.43307 | 33137 ft | 516 kts | 94° |
| 2026-04-30 01:58 | 40.76718 | 45.52754 | 33128 ft | 515 kts | 97° |
| 2026-04-30 01:58 | 40.75892 | 45.62083 | 33133 ft | 515 kts | 98° |
| 2026-04-30 01:59 | 40.74565 | 45.76141 | 33133 ft | 515 kts | 98° |
| 2026-04-30 02:00 | 40.73698 | 45.85515 | 33119 ft | 515 kts | 98° |
| 2026-04-30 02:00 | 40.72834 | 45.94890 | 33125 ft | 514 kts | 98° |
| 2026-04-30 02:01 | 40.71962 | 46.04251 | 33126 ft | 514 kts | 98° |
| 2026-04-30 02:01 | 40.71084 | 46.13596 | 33131 ft | 514 kts | 99° |
| 2026-04-30 02:02 | 40.70199 | 46.22904 | 33119 ft | 514 kts | 99° |
| 2026-04-30 02:02 | 40.69305 | 46.32242 | 33122 ft | 513 kts | 99° |
| 2026-04-30 02:03 | 40.68405 | 46.41568 | 33127 ft | 512 kts | 99° |
| 2026-04-30 02:03 | 40.67498 | 46.50871 | 33129 ft | 512 kts | 99° |
| 2026-04-30 02:04 | 40.66585 | 46.60162 | 33131 ft | 511 kts | 99° |
| 2026-04-30 02:04 | 40.65665 | 46.69450 | 33110 ft | 511 kts | 99° |
| 2026-04-30 02:05 | 40.64738 | 46.78726 | 33118 ft | 510 kts | 99° |
| 2026-04-30 02:05 | 40.63805 | 46.87989 | 33122 ft | 510 kts | 99° |
| 2026-04-30 02:06 | 40.62871 | 46.97187 | 33124 ft | 510 kts | 99° |
| 2026-04-30 02:06 | 40.61924 | 47.06449 | 33112 ft | 510 kts | 99° |
| 2026-04-30 02:07 | 40.60969 | 47.15709 | 33132 ft | 510 kts | 100° |
| 2026-04-30 02:07 | 40.60420 | 47.25040 | 33133 ft | 512 kts | 94° |
| 2026-04-30 02:08 | 40.60201 | 47.34415 | 33130 ft | 513 kts | 94° |
| 2026-04-30 02:08 | 40.59957 | 47.43803 | 33127 ft | 513 kts | 94° |
| 2026-04-30 02:09 | 40.59676 | 47.53139 | 33123 ft | 513 kts | 94° |
| 2026-04-30 02:09 | 40.59378 | 47.62522 | 33136 ft | 513 kts | 94° |
| 2026-04-30 02:10 | 40.59075 | 47.71902 | 33127 ft | 513 kts | 94° |
| 2026-04-30 02:10 | 40.58765 | 47.81283 | 33135 ft | 513 kts | 94° |
| 2026-04-30 02:11 | 40.58450 | 47.90662 | 33135 ft | 513 kts | 94° |
| 2026-04-30 02:11 | 40.58377 | 48.00043 | 33140 ft | 513 kts | 89° |
| 2026-04-30 02:12 | 40.58644 | 48.07846 | 33129 ft | 513 kts | 89° |
| 2026-04-30 02:12 | 40.58955 | 48.18745 | 33130 ft | 512 kts | 89° |
| 2026-04-30 02:13 | 40.59163 | 48.26598 | 33150 ft | 512 kts | 89° |
| 2026-04-30 02:13 | 40.59410 | 48.35905 | 33139 ft | 512 kts | 89° |
| 2026-04-30 02:14 | 40.59654 | 48.45274 | 33137 ft | 512 kts | 89° |
| 2026-04-30 02:14 | 40.59888 | 48.54629 | 33131 ft | 511 kts | 89° |
| 2026-04-30 02:15 | 40.60115 | 48.63974 | 33137 ft | 511 kts | 89° |
| 2026-04-30 02:15 | 40.60333 | 48.73306 | 33136 ft | 510 kts | 89° |
| 2026-04-30 02:16 | 40.60543 | 48.82658 | 33133 ft | 510 kts | 90° |
| 2026-04-30 02:16 | 40.60746 | 48.91989 | 33133 ft | 510 kts | 89° |
| 2026-04-30 02:17 | 40.60941 | 49.01262 | 33120 ft | 509 kts | 90° |
| 2026-04-30 02:17 | 40.61129 | 49.10559 | 33128 ft | 508 kts | 90° |
| 2026-04-30 02:18 | 40.61310 | 49.19841 | 33131 ft | 507 kts | 90° |
| 2026-04-30 02:18 | 40.61729 | 49.29115 | 33129 ft | 507 kts | 86° |
| 2026-04-30 02:19 | 40.62339 | 49.38357 | 33139 ft | 507 kts | 86° |
| 2026-04-30 02:19 | 40.62915 | 49.47600 | 33129 ft | 506 kts | 86° |
| 2026-04-30 02:20 | 40.63439 | 49.56848 | 33123 ft | 506 kts | 86° |
| 2026-04-30 02:20 | 40.63943 | 49.66099 | 33130 ft | 506 kts | 87° |
| 2026-04-30 02:21 | 40.64439 | 49.75348 | 33137 ft | 506 kts | 87° |
| 2026-04-30 02:21 | 40.64932 | 49.84605 | 33131 ft | 506 kts | 87° |
| 2026-04-30 02:22 | 40.65414 | 49.93803 | 33128 ft | 506 kts | 87° |
| 2026-04-30 02:22 | 40.65892 | 50.03049 | 33132 ft | 506 kts | 87° |
| 2026-04-30 02:23 | 40.66363 | 50.12298 | 33115 ft | 506 kts | 87° |
| 2026-04-30 02:23 | 40.66825 | 50.21540 | 33131 ft | 505 kts | 88° |
| 2026-04-30 02:24 | 40.67280 | 50.30775 | 33121 ft | 505 kts | 88° |
| 2026-04-30 02:24 | 40.67729 | 50.40012 | 33119 ft | 504 kts | 88° |
| 2026-04-30 02:25 | 40.68169 | 50.49231 | 33119 ft | 504 kts | 88° |
| 2026-04-30 02:25 | 40.68601 | 50.58448 | 33124 ft | 504 kts | 88° |
| 2026-04-30 02:26 | 40.69027 | 50.67667 | 33126 ft | 504 kts | 88° |
| 2026-04-30 02:26 | 40.69443 | 50.76835 | 33126 ft | 504 kts | 88° |
| 2026-04-30 02:27 | 40.69854 | 50.86062 | 33120 ft | 504 kts | 88° |
| 2026-04-30 02:27 | 40.70258 | 50.95278 | 33120 ft | 504 kts | 88° |
| 2026-04-30 02:28 | 40.70655 | 51.04498 | 33125 ft | 503 kts | 88° |
| 2026-04-30 02:28 | 40.71043 | 51.13707 | 33128 ft | 503 kts | 88° |
| 2026-04-30 02:29 | 40.71425 | 51.22919 | 33119 ft | 503 kts | 88° |
| 2026-04-30 02:29 | 40.71799 | 51.32126 | 33106 ft | 502 kts | 89° |
| 2026-04-30 02:30 | 40.72166 | 51.41315 | 33112 ft | 502 kts | 89° |
| 2026-04-30 02:30 | 40.72625 | 51.50502 | 33108 ft | 502 kts | 84° |
| 2026-04-30 02:31 | 40.73999 | 51.59546 | 33118 ft | 503 kts | 78° |
| 2026-04-30 02:31 | 40.75537 | 51.68484 | 33107 ft | 503 kts | 79° |
| 2026-04-30 02:32 | 40.77043 | 51.77494 | 33100 ft | 503 kts | 79° |
| 2026-04-30 02:32 | 40.78517 | 51.86530 | 33111 ft | 503 kts | 79° |
| 2026-04-30 02:33 | 40.79976 | 51.95561 | 33102 ft | 503 kts | 79° |
| 2026-04-30 02:33 | 40.81433 | 52.04611 | 33092 ft | 503 kts | 80° |
| 2026-04-30 02:34 | 40.82881 | 52.13645 | 33080 ft | 502 kts | 80° |
| 2026-04-30 02:34 | 40.84313 | 52.22626 | 33097 ft | 502 kts | 80° |
| 2026-04-30 02:35 | 40.85747 | 52.31665 | 33087 ft | 502 kts | 80° |
| 2026-04-30 02:35 | 40.87172 | 52.40696 | 33076 ft | 502 kts | 80° |
| 2026-04-30 02:36 | 40.88588 | 52.49722 | 33076 ft | 501 kts | 80° |
| 2026-04-30 02:36 | 40.89992 | 52.58746 | 33078 ft | 501 kts | 81° |
| 2026-04-30 02:37 | 40.90713 | 52.67799 | 33081 ft | 497 kts | 90° |
| 2026-04-30 02:37 | 40.91045 | 52.76947 | 33078 ft | 497 kts | 90° |
| 2026-04-30 02:38 | 40.91354 | 52.84802 | 33076 ft | 497 kts | 89° |
| 2026-04-30 02:38 | 40.91739 | 52.93900 | 33067 ft | 498 kts | 90° |
| 2026-04-30 02:39 | 40.92126 | 53.03060 | 33077 ft | 498 kts | 90° |
| 2026-04-30 02:39 | 40.92502 | 53.12213 | 33067 ft | 499 kts | 90° |
| 2026-04-30 02:40 | 40.92858 | 53.21373 | 33070 ft | 499 kts | 90° |
| 2026-04-30 02:40 | 40.93197 | 53.30479 | 33072 ft | 499 kts | 90° |
| 2026-04-30 02:41 | 40.93532 | 53.39661 | 33065 ft | 499 kts | 90° |
| 2026-04-30 02:41 | 40.93862 | 53.48840 | 33059 ft | 499 kts | 90° |
| 2026-04-30 02:42 | 40.94186 | 53.58014 | 33064 ft | 499 kts | 91° |
| 2026-04-30 02:42 | 40.94503 | 53.67197 | 33062 ft | 499 kts | 91° |
| 2026-04-30 02:43 | 40.94812 | 53.76384 | 33060 ft | 499 kts | 91° |
| 2026-04-30 02:43 | 40.95112 | 53.85510 | 33042 ft | 499 kts | 91° |
| 2026-04-30 02:44 | 40.95406 | 53.94691 | 33060 ft | 500 kts | 91° |
| 2026-04-30 02:44 | 40.95694 | 54.03898 | 33061 ft | 500 kts | 91° |
| 2026-04-30 02:45 | 40.95974 | 54.13110 | 33045 ft | 501 kts | 91° |
| 2026-04-30 02:45 | 40.96248 | 54.22333 | 33056 ft | 502 kts | 91° |
| 2026-04-30 02:46 | 40.96514 | 54.31569 | 33055 ft | 502 kts | 91° |
| 2026-04-30 02:46 | 40.96772 | 54.40761 | 33060 ft | 503 kts | 91° |
| 2026-04-30 02:47 | 40.97025 | 54.50019 | 33057 ft | 503 kts | 91° |
| 2026-04-30 02:47 | 40.97270 | 54.59263 | 33057 ft | 503 kts | 91° |
| 2026-04-30 02:48 | 40.97507 | 54.68512 | 33056 ft | 502 kts | 92° |
| 2026-04-30 02:48 | 40.97737 | 54.77767 | 33048 ft | 502 kts | 92° |
| 2026-04-30 02:49 | 40.97961 | 54.87013 | 33063 ft | 503 kts | 92° |
| 2026-04-30 02:49 | 40.98172 | 54.96218 | 33055 ft | 504 kts | 92° |
| 2026-04-30 02:50 | 40.98373 | 55.05494 | 33044 ft | 504 kts | 92° |
| 2026-04-30 02:50 | 40.98567 | 55.14786 | 33048 ft | 504 kts | 92° |
| 2026-04-30 02:51 | 40.98757 | 55.24073 | 33061 ft | 505 kts | 92° |
| 2026-04-30 02:51 | 40.98937 | 55.33361 | 33057 ft | 505 kts | 92° |
| 2026-04-30 02:52 | 40.99110 | 55.42650 | 33027 ft | 504 kts | 92° |
| 2026-04-30 02:52 | 40.99275 | 55.51843 | 33041 ft | 502 kts | 92° |
| 2026-04-30 02:53 | 40.99433 | 55.61068 | 33044 ft | 500 kts | 92° |
| 2026-04-30 02:53 | 40.99584 | 55.70276 | 33046 ft | 499 kts | 93° |
| 2026-04-30 02:54 | 40.99726 | 55.79468 | 33049 ft | 499 kts | 93° |
| 2026-04-30 02:54 | 40.99874 | 55.88654 | 33044 ft | 499 kts | 93° |
| 2026-04-30 02:55 | 41.00019 | 55.97840 | 33030 ft | 499 kts | 93° |
| 2026-04-30 02:55 | 41.00155 | 56.07038 | 33050 ft | 500 kts | 93° |
| 2026-04-30 02:56 | 41.00283 | 56.16211 | 33056 ft | 501 kts | 93° |
| 2026-04-30 02:56 | 41.00385 | 56.23893 | 33032 ft | 502 kts | 93° |
| 2026-04-30 02:57 | 41.00500 | 56.33138 | 33048 ft | 502 kts | 93° |
| 2026-04-30 02:57 | 41.00610 | 56.42396 | 33047 ft | 503 kts | 93° |
| 2026-04-30 02:58 | 41.00798 | 56.51651 | 33044 ft | 505 kts | 89° |
| 2026-04-30 02:58 | 41.01832 | 56.60883 | 33034 ft | 507 kts | 84° |
| 2026-04-30 02:59 | 41.02997 | 56.70105 | 33034 ft | 507 kts | 85° |
| 2026-04-30 02:59 | 41.04120 | 56.79325 | 33034 ft | 507 kts | 85° |
| 2026-04-30 03:00 | 41.05203 | 56.88491 | 33037 ft | 506 kts | 85° |
| 2026-04-30 03:00 | 41.06277 | 56.97714 | 33033 ft | 505 kts | 86° |
| 2026-04-30 03:01 | 41.07344 | 57.06917 | 33028 ft | 504 kts | 86° |
| 2026-04-30 03:01 | 41.08403 | 57.16115 | 33023 ft | 504 kts | 86° |
| 2026-04-30 03:02 | 41.09453 | 57.25289 | 33022 ft | 503 kts | 86° |
| 2026-04-30 03:02 | 41.10495 | 57.34465 | 33018 ft | 503 kts | 85° |
| 2026-04-30 03:03 | 41.11530 | 57.43644 | 33028 ft | 503 kts | 85° |
| 2026-04-30 03:03 | 41.13068 | 57.57419 | 33017 ft | 503 kts | 86° |
| 2026-04-30 03:04 | 41.14078 | 57.66541 | 33016 ft | 502 kts | 85° |
| 2026-04-30 03:04 | 41.15085 | 57.75703 | 33011 ft | 500 kts | 86° |
| 2026-04-30 03:05 | 41.16080 | 57.84824 | 33007 ft | 499 kts | 86° |
| 2026-04-30 03:05 | 41.17067 | 57.93954 | 33006 ft | 498 kts | 86° |
| 2026-04-30 03:06 | 41.18046 | 58.03066 | 32997 ft | 498 kts | 86° |
| 2026-04-30 03:06 | 41.19017 | 58.12175 | 32996 ft | 498 kts | 86° |
| 2026-04-30 03:07 | 41.19977 | 58.21283 | 32997 ft | 498 kts | 86° |
| 2026-04-30 03:07 | 41.20930 | 58.30404 | 32982 ft | 498 kts | 86° |
| 2026-04-30 03:08 | 41.21868 | 58.39445 | 32986 ft | 495 kts | 86° |
| 2026-04-30 03:08 | 41.22802 | 58.48498 | 32987 ft | 493 kts | 86° |
| 2026-04-30 03:09 | 41.23722 | 58.57508 | 32958 ft | 490 kts | 85° |
| 2026-04-30 03:09 | 41.24631 | 58.66479 | 32963 ft | 489 kts | 85° |
| 2026-04-30 03:10 | 41.25531 | 58.75434 | 32977 ft | 488 kts | 85° |
| 2026-04-30 03:10 | 41.26417 | 58.84314 | 32981 ft | 488 kts | 85° |
| 2026-04-30 03:11 | 41.27303 | 58.93266 | 32973 ft | 489 kts | 85° |
| 2026-04-30 03:11 | 41.28183 | 59.02240 | 32939 ft | 490 kts | 85° |
| 2026-04-30 03:12 | 41.29063 | 59.11282 | 32970 ft | 495 kts | 85° |
| 2026-04-30 03:12 | 41.29944 | 59.20412 | 32962 ft | 500 kts | 85° |
| 2026-04-30 03:13 | 41.30825 | 59.29610 | 32954 ft | 502 kts | 85° |
| 2026-04-30 03:13 | 41.31699 | 59.38811 | 32945 ft | 501 kts | 85° |
| 2026-04-30 03:14 | 41.32564 | 59.48002 | 32950 ft | 499 kts | 85° |
| 2026-04-30 03:14 | 41.33420 | 59.57169 | 32938 ft | 498 kts | 85° |
| 2026-04-30 03:15 | 41.34188 | 59.66268 | 32936 ft | 496 kts | 89° |
| 2026-04-30 03:15 | 41.33992 | 59.75386 | 32939 ft | 492 kts | 97° |
| 2026-04-30 03:16 | 41.33500 | 59.84476 | 32942 ft | 493 kts | 97° |
| 2026-04-30 03:16 | 41.33059 | 59.93594 | 32933 ft | 494 kts | 96° |
| 2026-04-30 03:17 | 41.32633 | 60.02729 | 32932 ft | 495 kts | 96° |
| 2026-04-30 03:17 | 41.32197 | 60.11886 | 32926 ft | 495 kts | 96° |
| 2026-04-30 03:18 | 41.31760 | 60.21044 | 32912 ft | 496 kts | 97° |
| 2026-04-30 03:18 | 41.31317 | 60.30213 | 32925 ft | 496 kts | 97° |
| 2026-04-30 03:19 | 41.30869 | 60.39330 | 32913 ft | 497 kts | 97° |
| 2026-04-30 03:19 | 41.30912 | 60.48551 | 32918 ft | 500 kts | 89° |
| 2026-04-30 03:20 | 41.31460 | 60.57793 | 32907 ft | 501 kts | 88° |
| 2026-04-30 03:20 | 41.31992 | 60.67032 | 32909 ft | 501 kts | 89° |
| 2026-04-30 03:21 | 41.32480 | 60.76248 | 32907 ft | 501 kts | 89° |
| 2026-04-30 03:21 | 41.32950 | 60.85508 | 32905 ft | 501 kts | 89° |
| 2026-04-30 03:22 | 41.33413 | 60.94773 | 32896 ft | 501 kts | 89° |
| 2026-04-30 03:22 | 41.33871 | 61.04034 | 32903 ft | 501 kts | 89° |
| 2026-04-30 03:23 | 41.34323 | 61.13304 | 32900 ft | 501 kts | 89° |
| 2026-04-30 03:23 | 41.34763 | 61.22504 | 32901 ft | 501 kts | 89° |
| 2026-04-30 03:24 | 41.35199 | 61.31764 | 32896 ft | 500 kts | 89° |
| 2026-04-30 03:24 | 41.35627 | 61.40987 | 32899 ft | 499 kts | 89° |
| 2026-04-30 03:25 | 41.36044 | 61.50206 | 32898 ft | 498 kts | 89° |
| 2026-04-30 03:25 | 41.36451 | 61.59413 | 32896 ft | 498 kts | 89° |
| 2026-04-30 03:26 | 41.36852 | 61.68628 | 32898 ft | 498 kts | 89° |
| 2026-04-30 03:26 | 41.37243 | 61.77789 | 32887 ft | 498 kts | 89° |
| 2026-04-30 03:27 | 41.37630 | 61.87022 | 32898 ft | 499 kts | 89° |
| 2026-04-30 03:27 | 41.38010 | 61.96252 | 32894 ft | 499 kts | 89° |
| 2026-04-30 03:28 | 41.38383 | 62.05492 | 32896 ft | 499 kts | 90° |
| 2026-04-30 03:28 | 41.38748 | 62.14730 | 32894 ft | 499 kts | 90° |
| 2026-04-30 03:29 | 41.39104 | 62.23908 | 32893 ft | 499 kts | 90° |
| 2026-04-30 03:29 | 41.39454 | 62.33133 | 32898 ft | 498 kts | 90° |
| 2026-04-30 03:30 | 41.39797 | 62.42356 | 32895 ft | 497 kts | 90° |
| 2026-04-30 03:30 | 41.40132 | 62.51554 | 32899 ft | 497 kts | 90° |
| 2026-04-30 03:31 | 41.40490 | 62.60756 | 32892 ft | 497 kts | 89° |
| 2026-04-30 03:31 | 41.40857 | 62.69946 | 32897 ft | 497 kts | 89° |
| 2026-04-30 03:32 | 41.41215 | 62.79141 | 32899 ft | 497 kts | 89° |
| 2026-04-30 03:32 | 41.41562 | 62.88344 | 32904 ft | 497 kts | 89° |
| 2026-04-30 03:33 | 41.41897 | 62.97477 | 32899 ft | 497 kts | 89° |
| 2026-04-30 03:33 | 41.42228 | 63.06667 | 32901 ft | 497 kts | 90° |
| 2026-04-30 03:34 | 41.42551 | 63.15861 | 32898 ft | 497 kts | 89° |
| 2026-04-30 03:34 | 41.42867 | 63.25047 | 32899 ft | 496 kts | 90° |
| 2026-04-30 03:35 | 41.43176 | 63.34243 | 32908 ft | 496 kts | 90° |
| 2026-04-30 03:35 | 41.43478 | 63.43433 | 32911 ft | 496 kts | 90° |
| 2026-04-30 03:36 | 41.43773 | 63.52630 | 32904 ft | 497 kts | 89° |
| 2026-04-30 03:36 | 41.44061 | 63.61844 | 32910 ft | 497 kts | 89° |
| 2026-04-30 03:37 | 41.44338 | 63.71062 | 32912 ft | 498 kts | 90° |
| 2026-04-30 03:37 | 41.44589 | 63.80232 | 32909 ft | 498 kts | 89° |
| 2026-04-30 03:38 | 41.44795 | 63.87967 | 32912 ft | 499 kts | 89° |
| 2026-04-30 03:38 | 41.45074 | 63.98707 | 32914 ft | 499 kts | 90° |
| 2026-04-30 03:39 | 41.45271 | 64.06465 | 32908 ft | 500 kts | 89° |
| 2026-04-30 03:39 | 41.45499 | 64.15737 | 32911 ft | 500 kts | 89° |
| 2026-04-30 03:40 | 41.45719 | 64.24940 | 32921 ft | 500 kts | 89° |
| 2026-04-30 03:40 | 41.45932 | 64.34212 | 32921 ft | 500 kts | 89° |
| 2026-04-30 03:41 | 41.46139 | 64.43493 | 32918 ft | 500 kts | 89° |
| 2026-04-30 03:41 | 41.46337 | 64.52765 | 32922 ft | 500 kts | 89° |
| 2026-04-30 03:42 | 41.46528 | 64.62033 | 32921 ft | 500 kts | 89° |
| 2026-04-30 03:42 | 41.46711 | 64.71300 | 32922 ft | 500 kts | 89° |
| 2026-04-30 03:43 | 41.46888 | 64.80573 | 32921 ft | 500 kts | 89° |
| 2026-04-30 03:43 | 41.47057 | 64.89843 | 32918 ft | 500 kts | 89° |
| 2026-04-30 03:44 | 41.47217 | 64.99055 | 32925 ft | 500 kts | 89° |
| 2026-04-30 03:44 | 41.47370 | 65.08320 | 32923 ft | 500 kts | 89° |
| 2026-04-30 03:45 | 41.47517 | 65.17595 | 32920 ft | 500 kts | 89° |
| 2026-04-30 03:45 | 41.47656 | 65.26868 | 32912 ft | 500 kts | 89° |
| 2026-04-30 03:46 | 41.47788 | 65.36139 | 32925 ft | 499 kts | 89° |
| 2026-04-30 03:46 | 41.47912 | 65.45393 | 32921 ft | 499 kts | 89° |
| 2026-04-30 03:47 | 41.48027 | 65.54609 | 32919 ft | 499 kts | 89° |
| 2026-04-30 03:47 | 41.48137 | 65.63869 | 32921 ft | 499 kts | 89° |
| 2026-04-30 03:48 | 41.48240 | 65.73139 | 32920 ft | 499 kts | 89° |
| 2026-04-30 03:48 | 41.48327 | 65.82411 | 32920 ft | 500 kts | 89° |
| 2026-04-30 03:49 | 41.48352 | 65.91688 | 32917 ft | 500 kts | 89° |
| 2026-04-30 03:49 | 41.48358 | 66.00903 | 32918 ft | 500 kts | 89° |
| 2026-04-30 03:50 | 41.48366 | 66.10196 | 32921 ft | 501 kts | 89° |
| 2026-04-30 03:50 | 41.48371 | 66.19493 | 32918 ft | 501 kts | 90° |
| 2026-04-30 03:51 | 41.48368 | 66.28790 | 32920 ft | 501 kts | 90° |
| 2026-04-30 03:51 | 41.48357 | 66.38096 | 32918 ft | 502 kts | 90° |
| 2026-04-30 03:52 | 41.48340 | 66.47406 | 32916 ft | 502 kts | 90° |
| 2026-04-30 03:52 | 41.48315 | 66.56674 | 32914 ft | 502 kts | 90° |
| 2026-04-30 03:53 | 41.47685 | 66.65938 | 32909 ft | 502 kts | 101° |
| 2026-04-30 03:53 | 41.46296 | 66.75059 | 32914 ft | 501 kts | 102° |
| 2026-04-30 03:54 | 41.44904 | 66.84181 | 32913 ft | 501 kts | 101° |
| 2026-04-30 03:54 | 41.43546 | 66.93291 | 32913 ft | 501 kts | 101° |
| 2026-04-30 03:55 | 41.42207 | 67.02339 | 32913 ft | 500 kts | 101° |
| 2026-04-30 03:55 | 41.40854 | 67.11436 | 32914 ft | 500 kts | 101° |
| 2026-04-30 03:56 | 41.39492 | 67.20523 | 32914 ft | 500 kts | 102° |
| 2026-04-30 03:56 | 41.38123 | 67.29601 | 32916 ft | 500 kts | 102° |
| 2026-04-30 03:57 | 41.36747 | 67.38670 | 32913 ft | 499 kts | 102° |
| 2026-04-30 03:57 | 41.35364 | 67.47735 | 32909 ft | 499 kts | 102° |
| 2026-04-30 03:58 | 41.33978 | 67.56773 | 32918 ft | 499 kts | 102° |
| 2026-04-30 03:58 | 41.32592 | 67.65766 | 32914 ft | 498 kts | 102° |
| 2026-04-30 03:59 | 41.31192 | 67.74796 | 32916 ft | 498 kts | 102° |
| 2026-04-30 03:59 | 41.29787 | 67.83815 | 32915 ft | 498 kts | 102° |
| 2026-04-30 04:00 | 41.28380 | 67.92831 | 32915 ft | 498 kts | 102° |
| 2026-04-30 04:00 | 41.27414 | 68.01963 | 32904 ft | 498 kts | 97° |
| 2026-04-30 04:01 | 41.26681 | 68.11123 | 32919 ft | 498 kts | 96° |
| 2026-04-30 04:01 | 41.25921 | 68.20233 | 32923 ft | 499 kts | 97° |
| 2026-04-30 04:02 | 41.25106 | 68.29406 | 32921 ft | 499 kts | 97° |
| 2026-04-30 04:02 | 41.24272 | 68.38558 | 32923 ft | 498 kts | 97° |
| 2026-04-30 04:03 | 41.23434 | 68.47704 | 32924 ft | 498 kts | 97° |
| 2026-04-30 04:03 | 41.22590 | 68.56845 | 32928 ft | 498 kts | 98° |
| 2026-04-30 04:04 | 41.21748 | 68.65909 | 32928 ft | 497 kts | 98° |
| 2026-04-30 04:04 | 41.20895 | 68.75001 | 32927 ft | 496 kts | 98° |
| 2026-04-30 04:05 | 41.20035 | 68.84092 | 32927 ft | 495 kts | 98° |
| 2026-04-30 04:05 | 41.19212 | 68.93161 | 32930 ft | 494 kts | 95° |
| 2026-04-30 04:06 | 41.18951 | 69.02280 | 32935 ft | 494 kts | 92° |
| 2026-04-30 04:06 | 41.18794 | 69.11402 | 32937 ft | 494 kts | 92° |
| 2026-04-30 04:07 | 41.18556 | 69.20454 | 32940 ft | 494 kts | 94° |
| 2026-04-30 04:08 | 41.17586 | 69.34056 | 32944 ft | 493 kts | 98° |
| 2026-04-30 04:08 | 41.16803 | 69.43129 | 32938 ft | 494 kts | 98° |
| 2026-04-30 04:09 | 41.16036 | 69.52217 | 32927 ft | 495 kts | 97° |
| 2026-04-30 04:09 | 41.15274 | 69.61294 | 32951 ft | 495 kts | 98° |
| 2026-04-30 04:10 | 41.14513 | 69.70309 | 32956 ft | 494 kts | 98° |
| 2026-04-30 04:10 | 41.13738 | 69.79382 | 32978 ft | 494 kts | 98° |
| 2026-04-30 04:11 | 41.12955 | 69.88451 | 32974 ft | 494 kts | 98° |
| 2026-04-30 04:11 | 41.12166 | 69.97502 | 32991 ft | 493 kts | 98° |
| 2026-04-30 04:12 | 41.11372 | 70.06535 | 32983 ft | 493 kts | 98° |
| 2026-04-30 04:12 | 41.10573 | 70.15572 | 32998 ft | 492 kts | 98° |
| 2026-04-30 04:13 | 41.09949 | 70.24605 | 33013 ft | 492 kts | 92° |
| 2026-04-30 04:13 | 41.10420 | 70.33612 | 33026 ft | 493 kts | 85° |
| 2026-04-30 04:14 | 41.11170 | 70.42674 | 33027 ft | 494 kts | 85° |
| 2026-04-30 04:14 | 41.11866 | 70.51754 | 33040 ft | 495 kts | 85° |
| 2026-04-30 04:15 | 41.12530 | 70.60852 | 33027 ft | 496 kts | 85° |
| 2026-04-30 04:15 | 41.13185 | 70.69903 | 33037 ft | 496 kts | 85° |
| 2026-04-30 04:16 | 41.13828 | 70.79027 | 33026 ft | 496 kts | 86° |
| 2026-04-30 04:16 | 41.14450 | 70.88144 | 33005 ft | 496 kts | 86° |
| 2026-04-30 04:17 | 41.15068 | 70.97274 | 32999 ft | 496 kts | 86° |
| 2026-04-30 04:17 | 41.15680 | 71.06386 | 32987 ft | 495 kts | 86° |
| 2026-04-30 04:18 | 41.16283 | 71.15500 | 32969 ft | 495 kts | 86° |
| 2026-04-30 04:18 | 41.16874 | 71.24541 | 32969 ft | 494 kts | 86° |
| 2026-04-30 04:19 | 41.17462 | 71.33636 | 32952 ft | 494 kts | 86° |
| 2026-04-30 04:19 | 41.18043 | 71.42729 | 32946 ft | 494 kts | 86° |
| 2026-04-30 04:20 | 41.18617 | 71.51826 | 32945 ft | 494 kts | 86° |
| 2026-04-30 04:20 | 41.19184 | 71.60932 | 32940 ft | 494 kts | 86° |
| 2026-04-30 04:21 | 41.19743 | 71.70024 | 32950 ft | 494 kts | 86° |
| 2026-04-30 04:21 | 41.20297 | 71.79134 | 32952 ft | 494 kts | 86° |
| 2026-04-30 04:22 | 41.20744 | 71.86700 | 32953 ft | 494 kts | 86° |
| 2026-04-30 04:22 | 41.21355 | 71.97290 | 32949 ft | 494 kts | 86° |
| 2026-04-30 04:23 | 41.21792 | 72.04935 | 32965 ft | 495 kts | 86° |
| 2026-04-30 04:23 | 41.22305 | 72.14001 | 32966 ft | 495 kts | 86° |
| 2026-04-30 04:24 | 41.22815 | 72.23128 | 32973 ft | 495 kts | 86° |
| 2026-04-30 04:24 | 41.23340 | 72.32263 | 32964 ft | 496 kts | 86° |
| 2026-04-30 04:25 | 41.23864 | 72.41415 | 32984 ft | 496 kts | 86° |
| 2026-04-30 04:25 | 41.24379 | 72.50562 | 32990 ft | 497 kts | 86° |
| 2026-04-30 04:26 | 41.24886 | 72.59720 | 33000 ft | 497 kts | 86° |
| 2026-04-30 04:26 | 41.25374 | 72.68895 | 33011 ft | 497 kts | 86° |
| 2026-04-30 04:27 | 41.25847 | 72.78051 | 33008 ft | 497 kts | 86° |
| 2026-04-30 04:27 | 41.26315 | 72.87228 | 33025 ft | 497 kts | 86° |
| 2026-04-30 04:28 | 41.26774 | 72.96344 | 33026 ft | 497 kts | 86° |
| 2026-04-30 04:28 | 41.27229 | 73.05534 | 33034 ft | 497 kts | 86° |
| 2026-04-30 04:29 | 41.27678 | 73.14722 | 33031 ft | 498 kts | 86° |
| 2026-04-30 04:29 | 41.28118 | 73.23906 | 33046 ft | 498 kts | 86° |
| 2026-04-30 04:30 | 41.28549 | 73.33044 | 33049 ft | 498 kts | 86° |
| 2026-04-30 04:30 | 41.28976 | 73.42242 | 33059 ft | 497 kts | 86° |
| 2026-04-30 04:31 | 41.29396 | 73.51423 | 33076 ft | 497 kts | 86° |
| 2026-04-30 04:31 | 41.29806 | 73.60609 | 33070 ft | 497 kts | 86° |
| 2026-04-30 04:32 | 41.30211 | 73.69782 | 33076 ft | 497 kts | 86° |
| 2026-04-30 04:32 | 41.30606 | 73.78953 | 33071 ft | 496 kts | 86° |
| 2026-04-30 04:33 | 41.30994 | 73.88116 | 33073 ft | 496 kts | 86° |
| 2026-04-30 04:33 | 41.31374 | 73.97224 | 33079 ft | 495 kts | 86° |
| 2026-04-30 04:34 | 41.31837 | 74.06363 | 33071 ft | 496 kts | 84° |
| 2026-04-30 04:34 | 41.32535 | 74.15502 | 33076 ft | 496 kts | 83° |
| 2026-04-30 04:35 | 41.33237 | 74.24639 | 33079 ft | 497 kts | 84° |
| 2026-04-30 04:35 | 41.33895 | 74.33812 | 33077 ft | 497 kts | 84° |
| 2026-04-30 04:36 | 41.34529 | 74.42989 | 33083 ft | 498 kts | 84° |
| 2026-04-30 04:36 | 41.35157 | 74.52175 | 33072 ft | 498 kts | 84° |
| 2026-04-30 04:37 | 41.35775 | 74.61291 | 33081 ft | 497 kts | 84° |
| 2026-04-30 04:37 | 41.36391 | 74.70453 | 33081 ft | 497 kts | 84° |
| 2026-04-30 04:38 | 41.36998 | 74.79621 | 33082 ft | 497 kts | 84° |
| 2026-04-30 04:38 | 41.37599 | 74.88799 | 33085 ft | 497 kts | 84° |
| 2026-04-30 04:39 | 41.38193 | 74.97978 | 33075 ft | 497 kts | 84° |
| 2026-04-30 04:39 | 41.38783 | 75.07167 | 33097 ft | 497 kts | 84° |
| 2026-04-30 04:40 | 41.39364 | 75.16357 | 33085 ft | 498 kts | 84° |
| 2026-04-30 04:40 | 41.39940 | 75.25552 | 33084 ft | 497 kts | 84° |
| 2026-04-30 04:41 | 41.40506 | 75.34726 | 33086 ft | 497 kts | 84° |
| 2026-04-30 04:41 | 41.41065 | 75.43911 | 33092 ft | 497 kts | 84° |
| 2026-04-30 04:42 | 41.41614 | 75.53043 | 33067 ft | 497 kts | 84° |
| 2026-04-30 04:42 | 41.42158 | 75.62221 | 33065 ft | 497 kts | 84° |
| 2026-04-30 04:43 | 41.42697 | 75.71404 | 33063 ft | 497 kts | 84° |
| 2026-04-30 04:43 | 41.43228 | 75.80585 | 33068 ft | 497 kts | 84° |
| 2026-04-30 04:44 | 41.43754 | 75.89770 | 33049 ft | 498 kts | 84° |
| 2026-04-30 04:44 | 41.44274 | 75.98962 | 33055 ft | 497 kts | 84° |
| 2026-04-30 04:45 | 41.44786 | 76.08148 | 33052 ft | 497 kts | 84° |
| 2026-04-30 04:45 | 41.45288 | 76.17291 | 33073 ft | 497 kts | 84° |
| 2026-04-30 04:46 | 41.45786 | 76.26482 | 33066 ft | 497 kts | 84° |
| 2026-04-30 04:46 | 41.46275 | 76.35676 | 33068 ft | 497 kts | 84° |
| 2026-04-30 04:47 | 41.46758 | 76.44873 | 33071 ft | 497 kts | 84° |
| 2026-04-30 04:47 | 41.47234 | 76.54077 | 33082 ft | 497 kts | 84° |
| 2026-04-30 04:48 | 41.47702 | 76.63276 | 33063 ft | 497 kts | 84° |
| 2026-04-30 04:48 | 41.48162 | 76.72462 | 33070 ft | 495 kts | 84° |
| 2026-04-30 04:49 | 41.48613 | 76.81619 | 33089 ft | 494 kts | 84° |
| 2026-04-30 04:49 | 41.49056 | 76.90766 | 33077 ft | 494 kts | 85° |
| 2026-04-30 04:50 | 41.49490 | 76.99860 | 33113 ft | 494 kts | 85° |
| 2026-04-30 04:50 | 41.49920 | 77.09003 | 33110 ft | 494 kts | 85° |
| 2026-04-30 04:51 | 41.50342 | 77.18162 | 33100 ft | 494 kts | 85° |
| 2026-04-30 04:51 | 41.50756 | 77.27308 | 33114 ft | 495 kts | 85° |
| 2026-04-30 04:52 | 41.51165 | 77.36484 | 33101 ft | 495 kts | 85° |
| 2026-04-30 04:52 | 41.51563 | 77.45615 | 33113 ft | 495 kts | 85° |
| 2026-04-30 04:53 | 41.51957 | 77.54791 | 33116 ft | 495 kts | 85° |
| 2026-04-30 04:53 | 41.52343 | 77.63970 | 33128 ft | 495 kts | 85° |
| 2026-04-30 04:54 | 41.52723 | 77.73159 | 33119 ft | 496 kts | 85° |
| 2026-04-30 04:54 | 41.53095 | 77.82350 | 33132 ft | 496 kts | 85° |
| 2026-04-30 04:55 | 41.53460 | 77.91557 | 33120 ft | 496 kts | 85° |
| 2026-04-30 04:55 | 41.53819 | 78.00778 | 33122 ft | 497 kts | 85° |
| 2026-04-30 04:56 | 41.54169 | 78.09943 | 33124 ft | 498 kts | 85° |
| 2026-04-30 04:56 | 41.54514 | 78.19194 | 33124 ft | 498 kts | 85° |
| 2026-04-30 04:57 | 41.54851 | 78.28441 | 33128 ft | 499 kts | 85° |
| 2026-04-30 04:57 | 41.55181 | 78.37706 | 33123 ft | 499 kts | 85° |
| 2026-04-30 04:58 | 41.55504 | 78.46958 | 33123 ft | 499 kts | 85° |
| 2026-04-30 04:58 | 41.55818 | 78.56168 | 33116 ft | 499 kts | 85° |
| 2026-04-30 04:59 | 41.56125 | 78.65430 | 33117 ft | 499 kts | 86° |
| 2026-04-30 04:59 | 41.56429 | 78.74689 | 33128 ft | 499 kts | 86° |
| 2026-04-30 05:00 | 41.56281 | 78.83967 | 33088 ft | 501 kts | 95° |
| 2026-04-30 05:00 | 41.54866 | 78.93099 | 33094 ft | 502 kts | 104° |
| 2026-04-30 05:01 | 41.53015 | 79.02095 | 33080 ft | 503 kts | 104° |
| 2026-04-30 05:01 | 41.51177 | 79.11057 | 33057 ft | 504 kts | 104° |
| 2026-04-30 05:02 | 41.49368 | 79.20090 | 33026 ft | 504 kts | 104° |
| 2026-04-30 05:02 | 41.47555 | 79.29134 | 33007 ft | 505 kts | 104° |
| 2026-04-30 05:03 | 41.45727 | 79.38193 | 33007 ft | 505 kts | 104° |
| 2026-04-30 05:03 | 41.43893 | 79.47231 | 32977 ft | 505 kts | 104° |
| 2026-04-30 05:04 | 41.42050 | 79.56275 | 32972 ft | 505 kts | 104° |
| 2026-04-30 05:04 | 41.40213 | 79.65251 | 32974 ft | 505 kts | 104° |
| 2026-04-30 05:05 | 41.38357 | 79.74282 | 32953 ft | 505 kts | 104° |
| 2026-04-30 05:05 | 41.36494 | 79.83311 | 32960 ft | 505 kts | 105° |
| 2026-04-30 05:06 | 41.34001 | 79.95327 | 32958 ft | 506 kts | 105° |
| 2026-04-30 05:06 | 41.32118 | 80.04359 | 32942 ft | 506 kts | 105° |
| 2026-04-30 05:07 | 41.30228 | 80.13384 | 32943 ft | 507 kts | 105° |
| 2026-04-30 05:07 | 41.28328 | 80.22418 | 32943 ft | 508 kts | 105° |
| 2026-04-30 05:08 | 41.26415 | 80.31482 | 32928 ft | 509 kts | 105° |
| 2026-04-30 05:08 | 41.24485 | 80.40533 | 32929 ft | 509 kts | 105° |
| 2026-04-30 05:09 | 41.22535 | 80.49588 | 32929 ft | 509 kts | 105° |
| 2026-04-30 05:09 | 41.20592 | 80.58586 | 32934 ft | 510 kts | 106° |
| 2026-04-30 05:10 | 41.18625 | 80.67658 | 32920 ft | 511 kts | 106° |
| 2026-04-30 05:10 | 41.16653 | 80.76725 | 32928 ft | 511 kts | 106° |
| 2026-04-30 05:11 | 41.14669 | 80.85808 | 32921 ft | 512 kts | 106° |
| 2026-04-30 05:11 | 41.12680 | 80.94873 | 32927 ft | 512 kts | 106° |
| 2026-04-30 05:12 | 41.10680 | 81.03952 | 32918 ft | 513 kts | 107° |
| 2026-04-30 05:12 | 41.08674 | 81.13021 | 32922 ft | 513 kts | 107° |
| 2026-04-30 05:13 | 41.06667 | 81.22058 | 32910 ft | 513 kts | 107° |
| 2026-04-30 05:13 | 41.04644 | 81.31127 | 32925 ft | 513 kts | 107° |
| 2026-04-30 05:14 | 41.02613 | 81.40199 | 32914 ft | 514 kts | 107° |
| 2026-04-30 05:14 | 41.00570 | 81.49283 | 32917 ft | 515 kts | 107° |
| 2026-04-30 05:15 | 40.98518 | 81.58374 | 32916 ft | 515 kts | 107° |
| 2026-04-30 05:15 | 40.96471 | 81.67416 | 32933 ft | 516 kts | 107° |
| 2026-04-30 05:16 | 40.94638 | 81.76621 | 32918 ft | 518 kts | 104° |
| 2026-04-30 05:16 | 40.92955 | 81.85892 | 32906 ft | 519 kts | 104° |
| 2026-04-30 05:17 | 40.91242 | 81.95158 | 32909 ft | 519 kts | 104° |
| 2026-04-30 05:17 | 40.89480 | 82.04413 | 32916 ft | 519 kts | 104° |
| 2026-04-30 05:18 | 40.87697 | 82.13661 | 32906 ft | 519 kts | 104° |
| 2026-04-30 05:18 | 40.85909 | 82.22894 | 32916 ft | 518 kts | 104° |
| 2026-04-30 05:19 | 40.84129 | 82.32054 | 32898 ft | 518 kts | 104° |
| 2026-04-30 05:19 | 40.82333 | 82.41264 | 32897 ft | 518 kts | 105° |
| 2026-04-30 05:20 | 40.80527 | 82.50484 | 32906 ft | 518 kts | 105° |
| 2026-04-30 05:20 | 40.78714 | 82.59697 | 32903 ft | 518 kts | 105° |
| 2026-04-30 05:21 | 40.76892 | 82.68906 | 32903 ft | 519 kts | 105° |
| 2026-04-30 05:21 | 40.75060 | 82.78128 | 32910 ft | 519 kts | 105° |
| 2026-04-30 05:22 | 40.73219 | 82.87354 | 32913 ft | 520 kts | 105° |
| 2026-04-30 05:22 | 40.71381 | 82.96525 | 32913 ft | 521 kts | 105° |
| 2026-04-30 05:23 | 40.69521 | 83.05765 | 32904 ft | 521 kts | 105° |
| 2026-04-30 05:23 | 40.67652 | 83.15004 | 32915 ft | 522 kts | 105° |
| 2026-04-30 05:24 | 40.65772 | 83.24257 | 32914 ft | 523 kts | 105° |
| 2026-04-30 05:24 | 40.63881 | 83.33519 | 32918 ft | 523 kts | 105° |
| 2026-04-30 05:25 | 40.61984 | 83.42771 | 32912 ft | 523 kts | 106° |
| 2026-04-30 05:25 | 40.60078 | 83.52031 | 32921 ft | 523 kts | 106° |
| 2026-04-30 05:26 | 40.58166 | 83.61275 | 32921 ft | 524 kts | 106° |
| 2026-04-30 05:26 | 40.56259 | 83.70453 | 32917 ft | 524 kts | 106° |
| 2026-04-30 05:27 | 40.54331 | 83.79694 | 32923 ft | 524 kts | 106° |
| 2026-04-30 05:27 | 40.52394 | 83.88947 | 32910 ft | 524 kts | 106° |
| 2026-04-30 05:28 | 40.50465 | 83.98197 | 32938 ft | 526 kts | 106° |
| 2026-04-30 05:28 | 40.48580 | 84.07509 | 32925 ft | 527 kts | 106° |
| 2026-04-30 05:29 | 40.46701 | 84.16825 | 32931 ft | 528 kts | 106° |
| 2026-04-30 05:29 | 40.44802 | 84.26152 | 32943 ft | 529 kts | 106° |
| 2026-04-30 05:30 | 40.42886 | 84.35487 | 32928 ft | 529 kts | 106° |
| 2026-04-30 05:30 | 40.40975 | 84.44748 | 32939 ft | 530 kts | 106° |
| 2026-04-30 05:31 | 40.39041 | 84.54083 | 32933 ft | 530 kts | 106° |
| 2026-04-30 05:31 | 40.37102 | 84.63403 | 32935 ft | 530 kts | 106° |
| 2026-04-30 05:32 | 40.35155 | 84.72723 | 32921 ft | 530 kts | 107° |
| 2026-04-30 05:32 | 40.33198 | 84.82051 | 32947 ft | 531 kts | 107° |
| 2026-04-30 05:33 | 40.31227 | 84.91401 | 32935 ft | 532 kts | 107° |
| 2026-04-30 05:33 | 40.29248 | 85.00745 | 32938 ft | 533 kts | 107° |
| 2026-04-30 05:34 | 40.27270 | 85.10047 | 32932 ft | 534 kts | 107° |
| 2026-04-30 05:34 | 40.25268 | 85.19420 | 32945 ft | 534 kts | 107° |
| 2026-04-30 05:35 | 40.23258 | 85.28792 | 32943 ft | 534 kts | 107° |
| 2026-04-30 05:35 | 40.21238 | 85.38168 | 32944 ft | 535 kts | 107° |
| 2026-04-30 05:36 | 40.19211 | 85.47535 | 32936 ft | 535 kts | 107° |
| 2026-04-30 05:36 | 40.17190 | 85.56838 | 32947 ft | 535 kts | 107° |
| 2026-04-30 05:37 | 40.15145 | 85.66206 | 32939 ft | 536 kts | 108° |
| 2026-04-30 05:37 | 40.13090 | 85.75584 | 32948 ft | 536 kts | 108° |
| 2026-04-30 05:38 | 40.11028 | 85.84953 | 32952 ft | 536 kts | 108° |
| 2026-04-30 05:38 | 40.08974 | 85.94254 | 32943 ft | 536 kts | 108° |
| 2026-04-30 05:39 | 40.06798 | 86.03558 | 32936 ft | 535 kts | 111° |
| 2026-04-30 05:39 | 40.04318 | 86.12691 | 32950 ft | 534 kts | 112° |
| 2026-04-30 05:40 | 40.01787 | 86.21810 | 32927 ft | 534 kts | 112° |
| 2026-04-30 05:40 | 39.99268 | 86.30940 | 32932 ft | 535 kts | 112° |
| 2026-04-30 05:41 | 39.96760 | 86.40075 | 32910 ft | 535 kts | 112° |
| 2026-04-30 05:41 | 39.94246 | 86.49213 | 32941 ft | 535 kts | 112° |
| 2026-04-30 05:42 | 39.91723 | 86.58349 | 32962 ft | 536 kts | 112° |
| 2026-04-30 05:42 | 39.89185 | 86.67502 | 32949 ft | 538 kts | 112° |
| 2026-04-30 05:43 | 39.86634 | 86.76665 | 32934 ft | 539 kts | 112° |
| 2026-04-30 05:43 | 39.84089 | 86.85777 | 32939 ft | 539 kts | 112° |
| 2026-04-30 05:44 | 39.81522 | 86.94933 | 32949 ft | 538 kts | 112° |
| 2026-04-30 05:44 | 39.78948 | 87.04086 | 32952 ft | 539 kts | 112° |
| 2026-04-30 05:45 | 39.76364 | 87.13238 | 32906 ft | 539 kts | 113° |
| 2026-04-30 05:45 | 39.73770 | 87.22393 | 32927 ft | 539 kts | 113° |
| 2026-04-30 05:46 | 39.71169 | 87.31539 | 32940 ft | 539 kts | 113° |
| 2026-04-30 05:46 | 39.68999 | 87.39147 | 32951 ft | 540 kts | 113° |
| 2026-04-30 05:47 | 39.65953 | 87.49790 | 32952 ft | 541 kts | 113° |
| 2026-04-30 05:47 | 39.63326 | 87.58931 | 32945 ft | 541 kts | 113° |
| 2026-04-30 05:48 | 39.60693 | 87.68068 | 32941 ft | 541 kts | 114° |
| 2026-04-30 05:48 | 39.58494 | 87.75669 | 32945 ft | 541 kts | 114° |
| 2026-04-30 05:49 | 39.55840 | 87.84815 | 32920 ft | 542 kts | 114° |
| 2026-04-30 05:49 | 39.53187 | 87.93930 | 32940 ft | 541 kts | 114° |
| 2026-04-30 05:50 | 39.50523 | 88.03046 | 32934 ft | 540 kts | 114° |
| 2026-04-30 05:50 | 39.47857 | 88.12141 | 32939 ft | 540 kts | 114° |
| 2026-04-30 05:51 | 39.45181 | 88.21238 | 32938 ft | 540 kts | 114° |
| 2026-04-30 05:51 | 39.42519 | 88.30254 | 32936 ft | 540 kts | 114° |
| 2026-04-30 05:52 | 39.39834 | 88.39322 | 32940 ft | 540 kts | 114° |
| 2026-04-30 05:52 | 39.37140 | 88.48386 | 32943 ft | 540 kts | 114° |
| 2026-04-30 05:53 | 39.34435 | 88.57458 | 32939 ft | 541 kts | 114° |
| 2026-04-30 05:53 | 39.31725 | 88.66518 | 32939 ft | 539 kts | 114° |
| 2026-04-30 05:54 | 39.29017 | 88.75538 | 32945 ft | 538 kts | 114° |
| 2026-04-30 05:54 | 39.26303 | 88.84547 | 32957 ft | 537 kts | 114° |
| 2026-04-30 05:55 | 39.23588 | 88.93531 | 32960 ft | 537 kts | 115° |
| 2026-04-30 05:55 | 39.20868 | 89.02502 | 32973 ft | 537 kts | 115° |
| 2026-04-30 05:56 | 39.18143 | 89.11460 | 32980 ft | 537 kts | 115° |
| 2026-04-30 05:56 | 39.15407 | 89.20423 | 32980 ft | 537 kts | 115° |
| 2026-04-30 05:57 | 39.12678 | 89.29336 | 32983 ft | 537 kts | 115° |
| 2026-04-30 05:57 | 39.09931 | 89.38279 | 33008 ft | 535 kts | 115° |
| 2026-04-30 05:58 | 39.07189 | 89.47175 | 33003 ft | 534 kts | 115° |
| 2026-04-30 05:58 | 39.04448 | 89.56040 | 33012 ft | 532 kts | 115° |
| 2026-04-30 05:59 | 39.01723 | 89.64825 | 33018 ft | 531 kts | 115° |
| 2026-04-30 05:59 | 38.98979 | 89.73640 | 33016 ft | 531 kts | 115° |
| 2026-04-30 06:00 | 38.96228 | 89.82449 | 33016 ft | 531 kts | 115° |
| 2026-04-30 06:00 | 38.93471 | 89.91259 | 33024 ft | 531 kts | 115° |
| 2026-04-30 06:01 | 38.90702 | 90.00072 | 33029 ft | 532 kts | 115° |
| 2026-04-30 06:01 | 38.87925 | 90.08882 | 33028 ft | 532 kts | 115° |
| 2026-04-30 06:02 | 38.85157 | 90.17640 | 33029 ft | 532 kts | 115° |
| 2026-04-30 06:02 | 38.82364 | 90.26446 | 33012 ft | 532 kts | 115° |
| 2026-04-30 06:03 | 38.79563 | 90.35257 | 33027 ft | 532 kts | 115° |
| 2026-04-30 06:03 | 38.76751 | 90.44023 | 33024 ft | 532 kts | 116° |
| 2026-04-30 06:04 | 38.73919 | 90.52809 | 33023 ft | 532 kts | 116° |
| 2026-04-30 06:05 | 38.69676 | 90.65950 | 33029 ft | 533 kts | 116° |
| 2026-04-30 06:05 | 38.66969 | 90.74738 | 33027 ft | 534 kts | 113° |
| 2026-04-30 06:06 | 38.64488 | 90.83682 | 32982 ft | 532 kts | 112° |
| 2026-04-30 06:06 | 38.62041 | 90.92602 | 32975 ft | 530 kts | 112° |
| 2026-04-30 06:07 | 38.59573 | 91.01478 | 32976 ft | 529 kts | 112° |
| 2026-04-30 06:07 | 38.57086 | 91.10326 | 32954 ft | 528 kts | 113° |
| 2026-04-30 06:08 | 38.54594 | 91.19148 | 32944 ft | 527 kts | 113° |
| 2026-04-30 06:08 | 38.52096 | 91.27967 | 32928 ft | 527 kts | 113° |
| 2026-04-30 06:09 | 38.49595 | 91.36773 | 32933 ft | 528 kts | 113° |
| 2026-04-30 06:09 | 38.47086 | 91.45578 | 32921 ft | 528 kts | 113° |
| 2026-04-30 06:10 | 38.44584 | 91.54334 | 32898 ft | 528 kts | 113° |
| 2026-04-30 06:10 | 38.42064 | 91.63120 | 32908 ft | 527 kts | 114° |
| 2026-04-30 06:11 | 38.39539 | 91.71895 | 32898 ft | 526 kts | 113° |
| 2026-04-30 06:11 | 38.37013 | 91.80645 | 32904 ft | 525 kts | 113° |
| 2026-04-30 06:12 | 38.34484 | 91.89375 | 32905 ft | 524 kts | 114° |
| 2026-04-30 06:12 | 38.31956 | 91.98078 | 32893 ft | 523 kts | 114° |
| 2026-04-30 06:13 | 38.29437 | 92.06716 | 32901 ft | 523 kts | 114° |
| 2026-04-30 06:13 | 38.26899 | 92.15393 | 32905 ft | 523 kts | 114° |
| 2026-04-30 06:14 | 38.24350 | 92.24080 | 32896 ft | 523 kts | 114° |
| 2026-04-30 06:14 | 38.21800 | 92.32748 | 32902 ft | 523 kts | 114° |
| 2026-04-30 06:15 | 38.19240 | 92.41421 | 32895 ft | 524 kts | 114° |
| 2026-04-30 06:15 | 38.16674 | 92.50039 | 32898 ft | 523 kts | 116° |
| 2026-04-30 06:16 | 38.13657 | 92.58398 | 32885 ft | 518 kts | 120° |
| 2026-04-30 06:16 | 38.10542 | 92.66644 | 32887 ft | 517 kts | 120° |
| 2026-04-30 06:17 | 38.07446 | 92.74868 | 32886 ft | 515 kts | 120° |
| 2026-04-30 06:17 | 38.04370 | 92.83078 | 32879 ft | 514 kts | 120° |
| 2026-04-30 06:18 | 38.01302 | 92.91267 | 32869 ft | 514 kts | 120° |
| 2026-04-30 06:18 | 37.98224 | 92.99458 | 32874 ft | 514 kts | 120° |
| 2026-04-30 06:19 | 37.95140 | 93.07642 | 32853 ft | 514 kts | 120° |
| 2026-04-30 06:19 | 37.92044 | 93.15830 | 32864 ft | 515 kts | 120° |
| 2026-04-30 06:20 | 37.88959 | 93.23972 | 32846 ft | 516 kts | 120° |
| 2026-04-30 06:20 | 37.85841 | 93.32176 | 32852 ft | 517 kts | 120° |
| 2026-04-30 06:21 | 37.82713 | 93.40388 | 32843 ft | 517 kts | 120° |
| 2026-04-30 06:21 | 37.79589 | 93.48565 | 32842 ft | 518 kts | 120° |
| 2026-04-30 06:22 | 37.76445 | 93.56774 | 32836 ft | 518 kts | 120° |
| 2026-04-30 06:22 | 37.73300 | 93.64963 | 32831 ft | 518 kts | 120° |
| 2026-04-30 06:23 | 37.70150 | 93.73143 | 32825 ft | 517 kts | 120° |
| 2026-04-30 06:23 | 37.67001 | 93.81300 | 32818 ft | 516 kts | 120° |
| 2026-04-30 06:24 | 37.63865 | 93.89401 | 32827 ft | 516 kts | 121° |
| 2026-04-30 06:24 | 37.60714 | 93.97520 | 32828 ft | 515 kts | 121° |
| 2026-04-30 06:25 | 37.57554 | 94.05639 | 32808 ft | 515 kts | 121° |
| 2026-04-30 06:25 | 37.54385 | 94.13764 | 32805 ft | 515 kts | 121° |
| 2026-04-30 06:26 | 37.51235 | 94.21817 | 32814 ft | 515 kts | 121° |
| 2026-04-30 06:26 | 37.48063 | 94.29906 | 32804 ft | 514 kts | 121° |
| 2026-04-30 06:27 | 37.44894 | 94.37967 | 32809 ft | 513 kts | 121° |
| 2026-04-30 06:27 | 37.41725 | 94.46006 | 32801 ft | 512 kts | 121° |
| 2026-04-30 06:28 | 37.38554 | 94.54030 | 32786 ft | 511 kts | 120° |
| 2026-04-30 06:28 | 37.35402 | 94.61989 | 32781 ft | 510 kts | 120° |
| 2026-04-30 06:29 | 37.32234 | 94.69960 | 32786 ft | 510 kts | 120° |
| 2026-04-30 06:29 | 37.29057 | 94.77937 | 32785 ft | 510 kts | 120° |
| 2026-04-30 06:30 | 37.25877 | 94.85903 | 32784 ft | 510 kts | 121° |
| 2026-04-30 06:30 | 37.23225 | 94.92531 | 32773 ft | 511 kts | 121° |
| 2026-04-30 06:31 | 37.19509 | 95.01793 | 32761 ft | 511 kts | 121° |
| 2026-04-30 06:31 | 37.16306 | 95.09757 | 32750 ft | 512 kts | 121° |
| 2026-04-30 06:32 | 37.13613 | 95.16435 | 32753 ft | 512 kts | 121° |
| 2026-04-30 06:32 | 37.10412 | 95.24362 | 32719 ft | 513 kts | 120° |
| 2026-04-30 06:33 | 37.07180 | 95.32338 | 32732 ft | 514 kts | 120° |
| 2026-04-30 06:33 | 37.03937 | 95.40324 | 32714 ft | 515 kts | 120° |
| 2026-04-30 06:34 | 37.00682 | 95.48325 | 32715 ft | 515 kts | 121° |
| 2026-04-30 06:34 | 36.97462 | 95.56348 | 32705 ft | 516 kts | 120° |
| 2026-04-30 06:35 | 36.94320 | 95.64366 | 32695 ft | 516 kts | 120° |
| 2026-04-30 06:35 | 36.91156 | 95.72417 | 32692 ft | 516 kts | 120° |
| 2026-04-30 06:36 | 36.87975 | 95.80452 | 32698 ft | 515 kts | 120° |
| 2026-04-30 06:36 | 36.84790 | 95.88465 | 32697 ft | 515 kts | 120° |
| 2026-04-30 06:37 | 36.81600 | 95.96476 | 32692 ft | 516 kts | 120° |
| 2026-04-30 06:37 | 36.78394 | 96.04511 | 32707 ft | 517 kts | 120° |
| 2026-04-30 06:38 | 36.75194 | 96.12572 | 32689 ft | 519 kts | 120° |
| 2026-04-30 06:38 | 36.72005 | 96.20670 | 32705 ft | 520 kts | 120° |
| 2026-04-30 06:39 | 36.68808 | 96.28766 | 32699 ft | 521 kts | 120° |
| 2026-04-30 06:39 | 36.65610 | 96.36834 | 32711 ft | 522 kts | 120° |
| 2026-04-30 06:40 | 36.62386 | 96.44941 | 32708 ft | 522 kts | 120° |
| 2026-04-30 06:40 | 36.59163 | 96.53032 | 32707 ft | 521 kts | 120° |
| 2026-04-30 06:41 | 36.55941 | 96.61103 | 32694 ft | 520 kts | 120° |
| 2026-04-30 06:41 | 36.52763 | 96.69167 | 32716 ft | 518 kts | 120° |
| 2026-04-30 06:42 | 36.49623 | 96.77164 | 32719 ft | 517 kts | 120° |
| 2026-04-30 06:42 | 36.46456 | 96.85202 | 32715 ft | 517 kts | 120° |
| 2026-04-30 06:43 | 36.43273 | 96.93243 | 32727 ft | 518 kts | 120° |
| 2026-04-30 06:43 | 36.40086 | 97.01267 | 32732 ft | 519 kts | 120° |
| 2026-04-30 06:44 | 36.36882 | 97.09316 | 32730 ft | 520 kts | 120° |
| 2026-04-30 06:44 | 36.33693 | 97.17315 | 32736 ft | 521 kts | 120° |
| 2026-04-30 06:45 | 36.30476 | 97.25360 | 32749 ft | 521 kts | 120° |
| 2026-04-30 06:45 | 36.27249 | 97.33412 | 32752 ft | 521 kts | 120° |
| 2026-04-30 06:46 | 36.24016 | 97.41455 | 32746 ft | 521 kts | 120° |
| 2026-04-30 06:46 | 36.20781 | 97.49489 | 32778 ft | 520 kts | 120° |
| 2026-04-30 06:47 | 36.17531 | 97.57491 | 32775 ft | 519 kts | 123° |
| 2026-04-30 06:47 | 36.13498 | 97.64798 | 32780 ft | 510 kts | 135° |
| 2026-04-30 06:48 | 36.08581 | 97.71015 | 32780 ft | 503 kts | 143° |
| 2026-04-30 06:48 | 36.03426 | 97.76794 | 32792 ft | 504 kts | 143° |
| 2026-04-30 06:49 | 35.98232 | 97.82637 | 32801 ft | 505 kts | 143° |
| 2026-04-30 06:49 | 35.93037 | 97.88517 | 32819 ft | 507 kts | 142° |
| 2026-04-30 06:50 | 35.87822 | 97.94430 | 32832 ft | 510 kts | 142° |
| 2026-04-30 06:50 | 35.82612 | 98.00337 | 32834 ft | 511 kts | 143° |
| 2026-04-30 06:51 | 35.77371 | 98.06264 | 32801 ft | 511 kts | 143° |
| 2026-04-30 06:51 | 35.72138 | 98.12166 | 32785 ft | 509 kts | 143° |
| 2026-04-30 06:52 | 35.66922 | 98.18034 | 32786 ft | 507 kts | 143° |
| 2026-04-30 06:52 | 35.61704 | 98.23893 | 32776 ft | 506 kts | 143° |
| 2026-04-30 06:53 | 35.56503 | 98.29725 | 32761 ft | 506 kts | 143° |
| 2026-04-30 06:53 | 35.51290 | 98.35562 | 32745 ft | 507 kts | 143° |
| 2026-04-30 06:54 | 35.46061 | 98.41403 | 32742 ft | 509 kts | 143° |
| 2026-04-30 06:54 | 35.40836 | 98.47226 | 32739 ft | 507 kts | 143° |
| 2026-04-30 06:55 | 35.35621 | 98.53037 | 32721 ft | 506 kts | 143° |
| 2026-04-30 06:55 | 35.30417 | 98.58821 | 32735 ft | 505 kts | 143° |
| 2026-04-30 06:56 | 35.25215 | 98.64591 | 32726 ft | 503 kts | 143° |
| 2026-04-30 06:56 | 35.20053 | 98.70305 | 32736 ft | 503 kts | 143° |
| 2026-04-30 06:57 | 35.14859 | 98.76048 | 32731 ft | 503 kts | 143° |
| 2026-04-30 06:57 | 35.09654 | 98.81785 | 32747 ft | 503 kts | 143° |
| 2026-04-30 06:58 | 35.04455 | 98.87508 | 32764 ft | 504 kts | 143° |
| 2026-04-30 06:58 | 34.99240 | 98.93243 | 32755 ft | 505 kts | 143° |
| 2026-04-30 06:59 | 34.94011 | 98.98980 | 32753 ft | 506 kts | 143° |
| 2026-04-30 06:59 | 34.88774 | 99.04715 | 32744 ft | 506 kts | 143° |
| 2026-04-30 07:00 | 34.83533 | 99.10447 | 32751 ft | 506 kts | 143° |
| 2026-04-30 07:00 | 34.78318 | 99.16141 | 32760 ft | 506 kts | 143° |
| 2026-04-30 07:01 | 34.73066 | 99.21860 | 32751 ft | 506 kts | 143° |
| 2026-04-30 07:01 | 34.67820 | 99.27566 | 32754 ft | 505 kts | 143° |
| 2026-04-30 07:02 | 34.62579 | 99.33256 | 32727 ft | 505 kts | 143° |
| 2026-04-30 07:02 | 34.57330 | 99.38944 | 32741 ft | 506 kts | 143° |
| 2026-04-30 07:03 | 34.52095 | 99.44607 | 32748 ft | 508 kts | 143° |
| 2026-04-30 07:03 | 34.46813 | 99.50308 | 32747 ft | 509 kts | 143° |
| 2026-04-30 07:04 | 34.41519 | 99.56015 | 32738 ft | 509 kts | 143° |
| 2026-04-30 07:04 | 34.36221 | 99.61718 | 32748 ft | 509 kts | 143° |
| 2026-04-30 07:05 | 34.28274 | 99.70252 | 32739 ft | 509 kts | 143° |
| 2026-04-30 07:05 | 34.22966 | 99.75937 | 32719 ft | 510 kts | 143° |
| 2026-04-30 07:06 | 34.17678 | 99.81592 | 32721 ft | 510 kts | 143° |
| 2026-04-30 07:06 | 34.12364 | 99.87263 | 32706 ft | 511 kts | 143° |
| 2026-04-30 07:07 | 34.07029 | 99.92951 | 32695 ft | 512 kts | 143° |
| 2026-04-30 07:07 | 34.01684 | 99.98639 | 32695 ft | 513 kts | 143° |
| 2026-04-30 07:08 | 33.96327 | 100.04330 | 32702 ft | 513 kts | 143° |
| 2026-04-30 07:08 | 33.90968 | 100.10011 | 32704 ft | 513 kts | 143° |
| 2026-04-30 07:09 | 33.85611 | 100.15677 | 32707 ft | 512 kts | 143° |
| 2026-04-30 07:09 | 33.80246 | 100.21346 | 32691 ft | 512 kts | 143° |
| 2026-04-30 07:10 | 33.74891 | 100.26993 | 32680 ft | 511 kts | 143° |
| 2026-04-30 07:10 | 33.69594 | 100.32572 | 32689 ft | 508 kts | 143° |
| 2026-04-30 07:11 | 33.64284 | 100.38145 | 32701 ft | 505 kts | 143° |
| 2026-04-30 07:11 | 33.58990 | 100.43706 | 32702 ft | 506 kts | 143° |
| 2026-04-30 07:12 | 33.53677 | 100.49271 | 32692 ft | 507 kts | 143° |
| 2026-04-30 07:12 | 33.48357 | 100.54834 | 32659 ft | 508 kts | 143° |
| 2026-04-30 07:13 | 33.43026 | 100.60393 | 32651 ft | 508 kts | 144° |
| 2026-04-30 07:13 | 33.38594 | 100.64993 | 32705 ft | 507 kts | 143° |
| 2026-04-30 07:14 | 33.33259 | 100.70569 | 32699 ft | 511 kts | 143° |
| 2026-04-30 07:14 | 33.27879 | 100.76167 | 32705 ft | 513 kts | 144° |
| 2026-04-30 07:15 | 33.22486 | 100.81759 | 32698 ft | 513 kts | 143° |
| 2026-04-30 07:15 | 33.17094 | 100.87337 | 32705 ft | 512 kts | 143° |
| 2026-04-30 07:16 | 33.11733 | 100.92878 | 32712 ft | 511 kts | 144° |
| 2026-04-30 07:16 | 33.06346 | 100.98437 | 32715 ft | 511 kts | 144° |
| 2026-04-30 07:17 | 33.00963 | 101.03982 | 32713 ft | 511 kts | 144° |
| 2026-04-30 07:18 | 32.92901 | 101.12267 | 32714 ft | 510 kts | 144° |
| 2026-04-30 07:18 | 32.87527 | 101.17783 | 32720 ft | 511 kts | 144° |
| 2026-04-30 07:19 | 32.82171 | 101.23269 | 32715 ft | 511 kts | 144° |
| 2026-04-30 07:19 | 32.76775 | 101.28784 | 32711 ft | 511 kts | 144° |
| 2026-04-30 07:20 | 32.71382 | 101.34290 | 32696 ft | 511 kts | 144° |
| 2026-04-30 07:20 | 32.65995 | 101.39783 | 32696 ft | 510 kts | 144° |
| 2026-04-30 07:21 | 32.60607 | 101.45283 | 32714 ft | 512 kts | 144° |
| 2026-04-30 07:21 | 32.55186 | 101.50783 | 32688 ft | 512 kts | 144° |
| 2026-04-30 07:22 | 32.47143 | 101.58910 | 32701 ft | 507 kts | 144° |
| 2026-04-30 07:22 | 32.41782 | 101.64344 | 32710 ft | 508 kts | 144° |
| 2026-04-30 07:23 | 32.36403 | 101.69780 | 32695 ft | 509 kts | 144° |
| 2026-04-30 07:23 | 32.31012 | 101.75214 | 32703 ft | 508 kts | 145° |
| 2026-04-30 07:24 | 32.25622 | 101.80639 | 32726 ft | 509 kts | 145° |
| 2026-04-30 07:24 | 32.20222 | 101.86072 | 32695 ft | 509 kts | 145° |
| 2026-04-30 07:25 | 32.14845 | 101.91454 | 32759 ft | 506 kts | 145° |
| 2026-04-30 07:25 | 32.09492 | 101.96821 | 32759 ft | 509 kts | 145° |
| 2026-04-30 07:26 | 32.04079 | 102.02273 | 32696 ft | 514 kts | 145° |
| 2026-04-30 07:26 | 31.98598 | 102.07712 | 32752 ft | 514 kts | 145° |
| 2026-04-30 07:27 | 31.93120 | 102.13158 | 32732 ft | 515 kts | 145° |
| 2026-04-30 07:27 | 31.87640 | 102.18616 | 32762 ft | 515 kts | 145° |
| 2026-04-30 07:28 | 31.82207 | 102.24023 | 32780 ft | 515 kts | 145° |
| 2026-04-30 07:28 | 31.76731 | 102.29464 | 32806 ft | 516 kts | 145° |
| 2026-04-30 07:29 | 31.71238 | 102.34908 | 32794 ft | 516 kts | 144° |
| 2026-04-30 07:29 | 31.65725 | 102.40360 | 32816 ft | 517 kts | 144° |
| 2026-04-30 07:30 | 31.57470 | 102.48497 | 32838 ft | 519 kts | 144° |
| 2026-04-30 07:31 | 31.51951 | 102.53943 | 32864 ft | 518 kts | 144° |
| 2026-04-30 07:31 | 31.46409 | 102.59400 | 32845 ft | 520 kts | 144° |
| 2026-04-30 07:32 | 31.40857 | 102.64835 | 32888 ft | 519 kts | 144° |
| 2026-04-30 07:32 | 31.35320 | 102.70267 | 32888 ft | 518 kts | 144° |
| 2026-04-30 07:33 | 31.29808 | 102.75669 | 32872 ft | 520 kts | 145° |
| 2026-04-30 07:33 | 31.24250 | 102.81094 | 32939 ft | 521 kts | 144° |
| 2026-04-30 07:34 | 31.18676 | 102.86539 | 32958 ft | 522 kts | 144° |
| 2026-04-30 07:34 | 31.13088 | 102.91982 | 32989 ft | 523 kts | 144° |
| 2026-04-30 07:35 | 31.07508 | 102.97410 | 33022 ft | 521 kts | 144° |
| 2026-04-30 07:35 | 31.01948 | 103.02815 | 33015 ft | 519 kts | 144° |
| 2026-04-30 07:36 | 30.96437 | 103.08156 | 33047 ft | 517 kts | 144° |
| 2026-04-30 07:36 | 30.90904 | 103.13506 | 33087 ft | 516 kts | 144° |
| 2026-04-30 07:37 | 30.85378 | 103.18840 | 33071 ft | 515 kts | 144° |
| 2026-04-30 07:37 | 30.79852 | 103.24180 | 33074 ft | 517 kts | 144° |
| 2026-04-30 07:38 | 30.74310 | 103.29521 | 33080 ft | 518 kts | 144° |
| 2026-04-30 07:38 | 30.68746 | 103.34871 | 33073 ft | 519 kts | 144° |
| 2026-04-30 07:39 | 30.63170 | 103.40230 | 33065 ft | 520 kts | 144° |
| 2026-04-30 07:39 | 30.57628 | 103.45546 | 33059 ft | 520 kts | 144° |
| 2026-04-30 07:40 | 30.52046 | 103.50890 | 33045 ft | 520 kts | 144° |
| 2026-04-30 07:40 | 30.46449 | 103.56241 | 33047 ft | 521 kts | 144° |
| 2026-04-30 07:41 | 30.40841 | 103.61595 | 33044 ft | 522 kts | 144° |
| 2026-04-30 07:41 | 30.35219 | 103.66954 | 33041 ft | 523 kts | 144° |
| 2026-04-30 07:42 | 30.29631 | 103.72273 | 33039 ft | 523 kts | 144° |
| 2026-04-30 07:42 | 30.24009 | 103.77616 | 33038 ft | 523 kts | 144° |
| 2026-04-30 07:43 | 30.18390 | 103.82948 | 33025 ft | 522 kts | 144° |
| 2026-04-30 07:43 | 30.12775 | 103.88267 | 33029 ft | 522 kts | 144° |
| 2026-04-30 07:44 | 30.07164 | 103.93575 | 33029 ft | 522 kts | 144° |
| 2026-04-30 07:44 | 30.01529 | 103.98898 | 33035 ft | 522 kts | 144° |
| 2026-04-30 07:45 | 29.95896 | 104.04210 | 33030 ft | 523 kts | 144° |
| 2026-04-30 07:45 | 29.90256 | 104.09521 | 33026 ft | 523 kts | 144° |
| 2026-04-30 07:46 | 29.84652 | 104.14790 | 33023 ft | 523 kts | 144° |
| 2026-04-30 07:46 | 29.79022 | 104.20076 | 33027 ft | 522 kts | 144° |
| 2026-04-30 07:47 | 29.73379 | 104.25366 | 33030 ft | 522 kts | 144° |
| 2026-04-30 07:47 | 29.67740 | 104.30645 | 33032 ft | 522 kts | 144° |
| 2026-04-30 07:48 | 29.62104 | 104.35912 | 33033 ft | 521 kts | 144° |
| 2026-04-30 07:48 | 29.56483 | 104.41153 | 33030 ft | 517 kts | 144° |
| 2026-04-30 07:49 | 29.50897 | 104.46360 | 33032 ft | 517 kts | 144° |
| 2026-04-30 07:49 | 29.45351 | 104.51530 | 33011 ft | 517 kts | 144° |
| 2026-04-30 07:50 | 29.39761 | 104.56724 | 33027 ft | 516 kts | 144° |
| 2026-04-30 07:50 | 29.34171 | 104.61906 | 33016 ft | 517 kts | 144° |
| 2026-04-30 07:51 | 29.28570 | 104.67094 | 32998 ft | 517 kts | 144° |
| 2026-04-30 07:51 | 29.22956 | 104.72288 | 33004 ft | 519 kts | 144° |
| 2026-04-30 07:52 | 29.17323 | 104.77492 | 33007 ft | 521 kts | 144° |
| 2026-04-30 07:52 | 29.11674 | 104.82704 | 33004 ft | 522 kts | 144° |
| 2026-04-30 07:53 | 29.06012 | 104.87919 | 33001 ft | 523 kts | 144° |
| 2026-04-30 07:53 | 29.00383 | 104.93095 | 32995 ft | 522 kts | 144° |
| 2026-04-30 07:54 | 28.94719 | 104.98300 | 32988 ft | 522 kts | 144° |
| 2026-04-30 07:54 | 28.89048 | 105.03503 | 32991 ft | 523 kts | 145° |
| 2026-04-30 07:55 | 28.83374 | 105.08700 | 32991 ft | 523 kts | 145° |
| 2026-04-30 07:55 | 28.77624 | 105.13777 | 32982 ft | 521 kts | 149° |
| 2026-04-30 07:56 | 28.72435 | 105.17188 | 32978 ft | 515 kts | 157° |
| 2026-04-30 07:56 | 28.66058 | 105.20946 | 32962 ft | 515 kts | 156° |
| 2026-04-30 07:57 | 28.58673 | 105.25355 | 32971 ft | 514 kts | 156° |
| 2026-04-30 07:57 | 28.53375 | 105.28550 | 32970 ft | 513 kts | 156° |
| 2026-04-30 07:58 | 28.47108 | 105.32331 | 32969 ft | 513 kts | 156° |
| 2026-04-30 07:58 | 28.40789 | 105.36137 | 32969 ft | 514 kts | 156° |
| 2026-04-30 07:59 | 28.34457 | 105.39942 | 32963 ft | 514 kts | 156° |
| 2026-04-30 07:59 | 28.28128 | 105.43740 | 32970 ft | 514 kts | 156° |
| 2026-04-30 08:00 | 28.18678 | 105.49403 | 32972 ft | 514 kts | 156° |
| 2026-04-30 08:00 | 28.12356 | 105.53184 | 32997 ft | 513 kts | 156° |
| 2026-04-30 08:01 | 28.05890 | 105.56517 | 32994 ft | 507 kts | 166° |
| 2026-04-30 08:01 | 27.99091 | 105.58462 | 33009 ft | 500 kts | 176° |
| 2026-04-30 08:02 | 27.88750 | 105.59983 | 33009 ft | 499 kts | 176° |
| 2026-04-30 08:03 | 27.75292 | 105.64104 | 33008 ft | 511 kts | 158° |
| 2026-04-30 08:04 | 27.69029 | 105.68005 | 33034 ft | 515 kts | 155° |
| 2026-04-30 08:04 | 27.62676 | 105.71732 | 33039 ft | 514 kts | 159° |
| 2026-04-30 08:05 | 27.56172 | 105.75140 | 33021 ft | 515 kts | 159° |
| 2026-04-30 08:05 | 27.49683 | 105.78555 | 33049 ft | 515 kts | 159° |
| 2026-04-30 08:06 | 27.43209 | 105.82035 | 33044 ft | 515 kts | 158° |
| 2026-04-30 08:06 | 27.36733 | 105.85533 | 33058 ft | 515 kts | 158° |
| 2026-04-30 08:07 | 27.30301 | 105.88999 | 33055 ft | 515 kts | 158° |
| 2026-04-30 08:07 | 27.23835 | 105.92473 | 33049 ft | 514 kts | 159° |
| 2026-04-30 08:08 | 27.17387 | 105.95934 | 33061 ft | 513 kts | 159° |
| 2026-04-30 08:08 | 27.10948 | 105.99387 | 33065 ft | 513 kts | 159° |
| 2026-04-30 08:09 | 27.04793 | 106.03518 | 33065 ft | 521 kts | 144° |
| 2026-04-30 08:09 | 26.99694 | 106.09355 | 33073 ft | 529 kts | 129° |
| 2026-04-30 08:10 | 26.95318 | 106.15989 | 33071 ft | 529 kts | 128° |
| 2026-04-30 08:10 | 26.90937 | 106.22640 | 33092 ft | 530 kts | 129° |
| 2026-04-30 08:11 | 26.86522 | 106.29211 | 33086 ft | 530 kts | 129° |
| 2026-04-30 08:11 | 26.82059 | 106.35791 | 33088 ft | 530 kts | 129° |
| 2026-04-30 08:12 | 26.77600 | 106.42358 | 33086 ft | 529 kts | 129° |
| 2026-04-30 08:12 | 26.73145 | 106.48921 | 33108 ft | 529 kts | 129° |
| 2026-04-30 08:13 | 26.68689 | 106.55473 | 33100 ft | 529 kts | 129° |
| 2026-04-30 08:13 | 26.64230 | 106.62015 | 33104 ft | 529 kts | 129° |
| 2026-04-30 08:14 | 26.59767 | 106.68567 | 33107 ft | 529 kts | 130° |
| 2026-04-30 08:14 | 26.55335 | 106.75058 | 33107 ft | 529 kts | 129° |
| 2026-04-30 08:15 | 26.50698 | 106.81421 | 33102 ft | 527 kts | 137° |
| 2026-04-30 08:15 | 26.45463 | 106.87131 | 33097 ft | 526 kts | 139° |
| 2026-04-30 08:16 | 26.40211 | 106.92813 | 33107 ft | 525 kts | 138° |
| 2026-04-30 08:16 | 26.35001 | 106.98537 | 33128 ft | 525 kts | 138° |
| 2026-04-30 08:17 | 26.29795 | 107.04267 | 33126 ft | 525 kts | 138° |
| 2026-04-30 08:17 | 26.24590 | 107.09977 | 33127 ft | 525 kts | 138° |
| 2026-04-30 08:18 | 26.19415 | 107.15654 | 33111 ft | 525 kts | 138° |
| 2026-04-30 08:18 | 26.14212 | 107.21359 | 33121 ft | 526 kts | 138° |
| 2026-04-30 08:19 | 26.08993 | 107.27072 | 33113 ft | 525 kts | 138° |
| 2026-04-30 08:19 | 26.03778 | 107.32773 | 33106 ft | 525 kts | 138° |
| 2026-04-30 08:20 | 25.98570 | 107.38460 | 33107 ft | 524 kts | 138° |
| 2026-04-30 08:20 | 25.93368 | 107.44128 | 33104 ft | 523 kts | 138° |
| 2026-04-30 08:21 | 25.88172 | 107.49789 | 33101 ft | 523 kts | 138° |
| 2026-04-30 08:21 | 25.82966 | 107.55452 | 33103 ft | 523 kts | 138° |
| 2026-04-30 08:22 | 25.77795 | 107.61067 | 33103 ft | 523 kts | 138° |
| 2026-04-30 08:22 | 25.72587 | 107.66721 | 33091 ft | 523 kts | 137° |
| 2026-04-30 08:23 | 25.67389 | 107.72380 | 33101 ft | 524 kts | 137° |
| 2026-04-30 08:23 | 25.62205 | 107.78062 | 33084 ft | 525 kts | 137° |
| 2026-04-30 08:24 | 25.57006 | 107.83751 | 33092 ft | 525 kts | 137° |
| 2026-04-30 08:24 | 25.51804 | 107.89429 | 33081 ft | 525 kts | 137° |
| 2026-04-30 08:25 | 25.46830 | 107.95339 | 33078 ft | 527 kts | 129° |
| 2026-04-30 08:25 | 25.42813 | 108.02135 | 33058 ft | 528 kts | 118° |
| 2026-04-30 08:26 | 25.39601 | 108.09442 | 33075 ft | 528 kts | 116° |
| 2026-04-30 08:26 | 25.36441 | 108.16772 | 33061 ft | 527 kts | 116° |
| 2026-04-30 08:27 | 25.33269 | 108.24031 | 33068 ft | 527 kts | 116° |
| 2026-04-30 08:27 | 25.30052 | 108.31316 | 33067 ft | 527 kts | 117° |
| 2026-04-30 08:28 | 25.26817 | 108.38597 | 33065 ft | 528 kts | 117° |
| 2026-04-30 08:28 | 25.23577 | 108.45883 | 33064 ft | 528 kts | 117° |
| 2026-04-30 08:29 | 25.20339 | 108.53160 | 33068 ft | 528 kts | 117° |
| 2026-04-30 08:29 | 25.17096 | 108.60445 | 33064 ft | 529 kts | 117° |
| 2026-04-30 08:30 | 25.13848 | 108.67727 | 33054 ft | 528 kts | 117° |
| 2026-04-30 08:30 | 25.10614 | 108.74962 | 33064 ft | 529 kts | 117° |
| 2026-04-30 08:31 | 25.07360 | 108.82229 | 33062 ft | 528 kts | 117° |
| 2026-04-30 08:31 | 25.04102 | 108.89495 | 33063 ft | 528 kts | 117° |
| 2026-04-30 08:32 | 25.00845 | 108.96747 | 33041 ft | 527 kts | 117° |
| 2026-04-30 08:32 | 24.97587 | 109.03991 | 33047 ft | 527 kts | 117° |
| 2026-04-30 08:33 | 24.94328 | 109.11227 | 33053 ft | 526 kts | 117° |
| 2026-04-30 08:33 | 24.91071 | 109.18445 | 33052 ft | 526 kts | 117° |
| 2026-04-30 08:34 | 24.87830 | 109.25616 | 33055 ft | 525 kts | 117° |
| 2026-04-30 08:34 | 24.84570 | 109.32816 | 33052 ft | 525 kts | 117° |
| 2026-04-30 08:35 | 24.81300 | 109.40028 | 33048 ft | 525 kts | 117° |
| 2026-04-30 08:35 | 24.78036 | 109.47214 | 33056 ft | 524 kts | 117° |
| 2026-04-30 08:36 | 24.74789 | 109.54355 | 33052 ft | 525 kts | 117° |
| 2026-04-30 08:36 | 24.71523 | 109.61526 | 33059 ft | 524 kts | 117° |
| 2026-04-30 08:37 | 24.68252 | 109.68694 | 33060 ft | 524 kts | 117° |
| 2026-04-30 08:37 | 24.64974 | 109.75867 | 33052 ft | 524 kts | 117° |
| 2026-04-30 08:38 | 24.61697 | 109.83024 | 33056 ft | 524 kts | 118° |
| 2026-04-30 08:38 | 24.58973 | 109.88968 | 33042 ft | 524 kts | 117° |
| 2026-04-30 08:39 | 24.55162 | 109.97272 | 33057 ft | 523 kts | 118° |
| 2026-04-30 08:39 | 24.51889 | 110.04389 | 33057 ft | 522 kts | 118° |
| 2026-04-30 08:40 | 24.48616 | 110.11496 | 33062 ft | 522 kts | 118° |
| 2026-04-30 08:40 | 24.45868 | 110.17452 | 33044 ft | 521 kts | 118° |
| 2026-04-30 08:41 | 24.42615 | 110.24496 | 33062 ft | 521 kts | 118° |
| 2026-04-30 08:41 | 24.39333 | 110.31597 | 33067 ft | 521 kts | 118° |
| 2026-04-30 08:42 | 24.36040 | 110.38704 | 33058 ft | 522 kts | 118° |
| 2026-04-30 08:42 | 24.32744 | 110.45804 | 33061 ft | 522 kts | 118° |
| 2026-04-30 08:43 | 24.29440 | 110.52917 | 33043 ft | 522 kts | 118° |
| 2026-04-30 08:43 | 24.26140 | 110.60008 | 33046 ft | 522 kts | 118° |
| 2026-04-30 08:44 | 24.22855 | 110.67055 | 33050 ft | 522 kts | 118° |
| 2026-04-30 08:44 | 24.19547 | 110.74144 | 33061 ft | 522 kts | 118° |
| 2026-04-30 08:45 | 24.16236 | 110.81226 | 33035 ft | 522 kts | 118° |
| 2026-04-30 08:45 | 24.12923 | 110.88304 | 33047 ft | 521 kts | 118° |
| 2026-04-30 08:46 | 24.09614 | 110.95360 | 33041 ft | 520 kts | 119° |
| 2026-04-30 08:46 | 24.06306 | 111.02404 | 33047 ft | 519 kts | 119° |
| 2026-04-30 08:47 | 24.03005 | 111.09424 | 33045 ft | 519 kts | 119° |
| 2026-04-30 08:47 | 23.99705 | 111.16432 | 33052 ft | 518 kts | 119° |
| 2026-04-30 08:48 | 23.96392 | 111.23453 | 33042 ft | 519 kts | 119° |
| 2026-04-30 08:48 | 23.93102 | 111.30419 | 33037 ft | 519 kts | 119° |
| 2026-04-30 08:49 | 23.89780 | 111.37441 | 33036 ft | 520 kts | 119° |
| 2026-04-30 08:49 | 23.86454 | 111.44462 | 33035 ft | 520 kts | 119° |
| 2026-04-30 08:50 | 23.83127 | 111.51474 | 33038 ft | 520 kts | 119° |
| 2026-04-30 08:50 | 23.79791 | 111.58493 | 33029 ft | 520 kts | 119° |
| 2026-04-30 08:51 | 23.76453 | 111.65509 | 33029 ft | 520 kts | 119° |
| 2026-04-30 08:51 | 23.73109 | 111.72526 | 33030 ft | 520 kts | 119° |
| 2026-04-30 08:52 | 23.69771 | 111.79520 | 33027 ft | 520 kts | 119° |
| 2026-04-30 08:52 | 23.66420 | 111.86533 | 33032 ft | 521 kts | 120° |
| 2026-04-30 08:53 | 23.63065 | 111.93542 | 33022 ft | 521 kts | 120° |
| 2026-04-30 08:53 | 23.59730 | 112.00499 | 33023 ft | 521 kts | 120° |
| 2026-04-30 08:54 | 23.56369 | 112.07501 | 33027 ft | 521 kts | 120° |
| 2026-04-30 08:54 | 23.53004 | 112.14500 | 33025 ft | 521 kts | 120° |
| 2026-04-30 08:55 | 23.49635 | 112.21500 | 33025 ft | 521 kts | 120° |
| 2026-04-30 08:55 | 23.46258 | 112.28506 | 33030 ft | 521 kts | 120° |
| 2026-04-30 08:56 | 23.42887 | 112.35486 | 33026 ft | 521 kts | 120° |
| 2026-04-30 08:56 | 23.39507 | 112.42477 | 33023 ft | 522 kts | 120° |
| 2026-04-30 08:57 | 23.36121 | 112.49471 | 33021 ft | 522 kts | 120° |
| 2026-04-30 08:57 | 23.32733 | 112.56460 | 33023 ft | 521 kts | 120° |
| 2026-04-30 08:58 | 23.29367 | 112.63394 | 33013 ft | 521 kts | 120° |
| 2026-04-30 08:58 | 23.25978 | 112.70362 | 33017 ft | 520 kts | 120° |
| 2026-04-30 08:59 | 23.22595 | 112.77311 | 33021 ft | 520 kts | 120° |
| 2026-04-30 08:59 | 23.19203 | 112.84268 | 33023 ft | 520 kts | 120° |
| 2026-04-30 09:00 | 23.15808 | 112.91221 | 33016 ft | 521 kts | 120° |
| 2026-04-30 09:00 | 23.12407 | 112.98178 | 33019 ft | 521 kts | 120° |
| 2026-04-30 09:01 | 23.09018 | 113.05100 | 33017 ft | 521 kts | 120° |
| 2026-04-30 09:01 | 23.05610 | 113.12053 | 33001 ft | 522 kts | 120° |
| 2026-04-30 09:01 | 23.03737 | 113.15401 | 33000 ft | 515 kts | 131° |
| 2026-04-30 09:02 | 22.98329 | 113.20272 | 33013 ft | 503 kts | 156° |
| 2026-04-30 09:02 | 22.95115 | 113.21673 | 33010 ft | 493 kts | 167° |
| 2026-04-30 09:02 | 22.91809 | 113.22727 | 33013 ft | 495 kts | 168° |
| 2026-04-30 09:03 | 22.85197 | 113.24905 | 33011 ft | 498 kts | 167° |
| 2026-04-30 09:03 | 22.78564 | 113.27188 | 33012 ft | 501 kts | 166° |
| 2026-04-30 09:04 | 22.71956 | 113.29489 | 33007 ft | 501 kts | 166° |
| 2026-04-30 09:04 | 22.65320 | 113.31790 | 33006 ft | 500 kts | 166° |
| 2026-04-30 09:05 | 22.58691 | 113.34083 | 32990 ft | 499 kts | 167° |
| 2026-04-30 09:05 | 22.52074 | 113.36375 | 33006 ft | 499 kts | 167° |
| 2026-04-30 09:06 | 22.45460 | 113.38664 | 33009 ft | 498 kts | 167° |
| 2026-04-30 09:06 | 22.38856 | 113.40948 | 33005 ft | 499 kts | 167° |
| 2026-04-30 09:07 | 22.32231 | 113.43238 | 33005 ft | 499 kts | 167° |
| 2026-04-30 09:07 | 22.25612 | 113.45523 | 32987 ft | 499 kts | 167° |
| 2026-04-30 09:08 | 22.19038 | 113.47816 | 33013 ft | 500 kts | 166° |
| 2026-04-30 09:08 | 22.15779 | 113.49004 | 32974 ft | 486 kts | 166° |
| 2026-04-30 09:08 | 22.12624 | 113.50169 | 32975 ft | 470 kts | 166° |
| 2026-04-30 09:09 | 22.09578 | 113.51289 | 32977 ft | 455 kts | 167° |
| 2026-04-30 09:09 | 22.06627 | 113.52365 | 32970 ft | 440 kts | 167° |
| 2026-04-30 09:09 | 22.03779 | 113.53397 | 32974 ft | 425 kts | 167° |
| 2026-04-30 09:09 | 22.01008 | 113.54399 | 32984 ft | 419 kts | 167° |
| 2026-04-30 09:10 | 21.95473 | 113.56392 | 32986 ft | 419 kts | 168° |
| 2026-04-30 09:10 | 21.89990 | 113.58368 | 33005 ft | 417 kts | 168° |
| 2026-04-30 09:11 | 21.84493 | 113.60351 | 33002 ft | 416 kts | 168° |
| 2026-04-30 09:11 | 21.79005 | 113.62330 | 32997 ft | 415 kts | 168° |
| 2026-04-30 09:12 | 21.73529 | 113.64304 | 33005 ft | 415 kts | 168° |
| 2026-04-30 09:12 | 21.68042 | 113.66280 | 33009 ft | 416 kts | 168° |
| 2026-04-30 09:13 | 21.62497 | 113.68268 | 33011 ft | 429 kts | 167° |
| 2026-04-30 09:13 | 21.59619 | 113.69285 | 33023 ft | 441 kts | 167° |
| 2026-04-30 09:13 | 21.56659 | 113.70322 | 33022 ft | 454 kts | 167° |
| 2026-04-30 09:14 | 21.53612 | 113.71379 | 33031 ft | 466 kts | 167° |
| 2026-04-30 09:14 | 21.50486 | 113.72454 | 33022 ft | 477 kts | 167° |
| 2026-04-30 09:14 | 21.47326 | 113.73532 | 33022 ft | 488 kts | 167° |
| 2026-04-30 09:14 | 21.44054 | 113.74642 | 33020 ft | 497 kts | 167° |
| 2026-04-30 09:15 | 21.37341 | 113.76899 | 33011 ft | 508 kts | 167° |
| 2026-04-30 09:15 | 21.30590 | 113.79163 | 32989 ft | 507 kts | 167° |
| 2026-04-30 09:16 | 21.23873 | 113.81415 | 32993 ft | 504 kts | 167° |
| 2026-04-30 09:16 | 21.17184 | 113.83659 | 32998 ft | 503 kts | 167° |
| 2026-04-30 09:17 | 21.10545 | 113.85885 | 33000 ft | 502 kts | 167° |
| 2026-04-30 09:17 | 21.03837 | 113.88134 | 32998 ft | 502 kts | 167° |
| 2026-04-30 09:18 | 20.97219 | 113.90351 | 33002 ft | 501 kts | 166° |
| 2026-04-30 09:18 | 20.90562 | 113.92581 | 33000 ft | 501 kts | 166° |
| 2026-04-30 09:19 | 20.83913 | 113.94807 | 32999 ft | 500 kts | 166° |
| 2026-04-30 09:19 | 20.77257 | 113.97034 | 32996 ft | 500 kts | 166° |
| 2026-04-30 09:20 | 20.70618 | 113.99254 | 32996 ft | 500 kts | 166° |
| 2026-04-30 09:20 | 20.63984 | 114.01473 | 32993 ft | 498 kts | 166° |
| 2026-04-30 09:21 | 20.57423 | 114.03668 | 32993 ft | 496 kts | 166° |
| 2026-04-30 09:21 | 20.50832 | 114.05873 | 32991 ft | 495 kts | 166° |
| 2026-04-30 09:22 | 20.45361 | 114.07704 | 32986 ft | 495 kts | 166° |
| 2026-04-30 09:22 | 20.38777 | 114.09904 | 32993 ft | 496 kts | 166° |
| 2026-04-30 09:23 | 20.32179 | 114.12107 | 32992 ft | 497 kts | 166° |
| 2026-04-30 09:23 | 20.25563 | 114.14313 | 32988 ft | 499 kts | 166° |
| 2026-04-30 09:24 | 20.18934 | 114.16522 | 32987 ft | 499 kts | 166° |
| 2026-04-30 09:24 | 20.12342 | 114.18717 | 32986 ft | 499 kts | 166° |
| 2026-04-30 09:25 | 20.05706 | 114.20925 | 32986 ft | 499 kts | 166° |
| 2026-04-30 09:25 | 19.99078 | 114.23131 | 32978 ft | 497 kts | 166° |
| 2026-04-30 09:26 | 19.92492 | 114.25323 | 32984 ft | 495 kts | 166° |
| 2026-04-30 09:26 | 19.85922 | 114.27511 | 32982 ft | 493 kts | 166° |
| 2026-04-30 09:27 | 19.79413 | 114.29679 | 32984 ft | 493 kts | 166° |
| 2026-04-30 09:27 | 19.72864 | 114.31860 | 32976 ft | 492 kts | 166° |
| 2026-04-30 09:28 | 19.66326 | 114.34036 | 32979 ft | 492 kts | 166° |
| 2026-04-30 09:28 | 19.59798 | 114.36209 | 32972 ft | 491 kts | 166° |
| 2026-04-30 09:29 | 19.53266 | 114.38382 | 32975 ft | 491 kts | 166° |
| 2026-04-30 09:29 | 19.46728 | 114.40556 | 32966 ft | 493 kts | 166° |
| 2026-04-30 09:30 | 19.40178 | 114.42732 | 32974 ft | 494 kts | 166° |
| 2026-04-30 09:30 | 19.33605 | 114.44914 | 32972 ft | 495 kts | 166° |
| 2026-04-30 09:31 | 19.27070 | 114.47082 | 32969 ft | 495 kts | 166° |
| 2026-04-30 09:31 | 19.20486 | 114.49266 | 32970 ft | 495 kts | 166° |
| 2026-04-30 09:32 | 19.13901 | 114.51449 | 32968 ft | 495 kts | 166° |
| 2026-04-30 09:32 | 19.07331 | 114.53626 | 32963 ft | 494 kts | 166° |
| 2026-04-30 09:33 | 19.00756 | 114.55806 | 32964 ft | 493 kts | 166° |
| 2026-04-30 09:33 | 18.94210 | 114.57976 | 32963 ft | 493 kts | 166° |
| 2026-04-30 09:34 | 18.87706 | 114.60131 | 32967 ft | 492 kts | 166° |
| 2026-04-30 09:34 | 18.81163 | 114.62299 | 32960 ft | 492 kts | 166° |
| 2026-04-30 09:35 | 18.74630 | 114.64463 | 32959 ft | 492 kts | 166° |
| 2026-04-30 09:35 | 18.68105 | 114.66624 | 32959 ft | 490 kts | 166° |
| 2026-04-30 09:36 | 18.61601 | 114.68779 | 32958 ft | 489 kts | 166° |
| 2026-04-30 09:36 | 18.55119 | 114.70926 | 32957 ft | 488 kts | 166° |
| 2026-04-30 09:37 | 18.48644 | 114.73071 | 32960 ft | 487 kts | 166° |
| 2026-04-30 09:37 | 18.42224 | 114.75198 | 32962 ft | 487 kts | 166° |
| 2026-04-30 09:38 | 18.35751 | 114.77339 | 32951 ft | 488 kts | 166° |
| 2026-04-30 09:38 | 18.29251 | 114.79489 | 32959 ft | 489 kts | 166° |
| 2026-04-30 09:39 | 18.22740 | 114.81639 | 32958 ft | 491 kts | 166° |
| 2026-04-30 09:39 | 18.16222 | 114.83791 | 32953 ft | 492 kts | 166° |
| 2026-04-30 09:40 | 18.09679 | 114.85949 | 32954 ft | 492 kts | 166° |
| 2026-04-30 09:40 | 18.03130 | 114.88108 | 32949 ft | 492 kts | 166° |
| 2026-04-30 09:41 | 17.97584 | 114.89935 | 32951 ft | 492 kts | 166° |
| 2026-04-30 09:41 | 17.93133 | 114.91402 | 32950 ft | 493 kts | 166° |
| 2026-04-30 09:42 | 17.86725 | 114.93882 | 32939 ft | 495 kts | 150° |
| 2026-04-30 09:42 | 17.84125 | 114.96277 | 32951 ft | 503 kts | 131° |
| 2026-04-30 09:42 | 17.82296 | 114.99423 | 32964 ft | 509 kts | 115° |
| 2026-04-30 09:43 | 17.81228 | 115.02979 | 32947 ft | 514 kts | 102° |
| 2026-04-30 09:43 | 17.80943 | 115.06726 | 32945 ft | 518 kts | 88° |
| 2026-04-30 09:43 | 17.81501 | 115.10455 | 32945 ft | 520 kts | 73° |
| 2026-04-30 09:43 | 17.82933 | 115.13926 | 32942 ft | 519 kts | 57° |
| 2026-04-30 09:44 | 17.85178 | 115.16877 | 32946 ft | 517 kts | 41° |
| 2026-04-30 09:44 | 17.88088 | 115.19094 | 32962 ft | 519 kts | 25° |
| 2026-04-30 09:44 | 17.91450 | 115.20454 | 32962 ft | 519 kts | 11° |
| 2026-04-30 09:44 | 17.95020 | 115.20989 | 32952 ft | 519 kts | 358° |
| 2026-04-30 09:45 | 17.98588 | 115.20622 | 32953 ft | 515 kts | 346° |
| 2026-04-30 09:45 | 18.02112 | 115.19875 | 32949 ft | 518 kts | 345° |
| 2026-04-30 09:45 | 18.09179 | 115.18190 | 32961 ft | 522 kts | 344° |
| 2026-04-30 09:46 | 18.16188 | 115.16278 | 32966 ft | 518 kts | 338° |
| 2026-04-30 09:46 | 18.22995 | 115.13753 | 32958 ft | 520 kts | 339° |
| 2026-04-30 09:47 | 18.29987 | 115.11729 | 32959 ft | 523 kts | 344° |
| 2026-04-30 09:47 | 18.37117 | 115.10164 | 32968 ft | 524 kts | 346° |
| 2026-04-30 09:48 | 18.44277 | 115.08732 | 32962 ft | 524 kts | 346° |
| 2026-04-30 09:48 | 18.51433 | 115.07275 | 32961 ft | 523 kts | 346° |
| 2026-04-30 09:49 | 18.58572 | 115.05781 | 32962 ft | 523 kts | 345° |
| 2026-04-30 09:49 | 18.65709 | 115.04272 | 32962 ft | 523 kts | 345° |
| 2026-04-30 09:50 | 18.72839 | 115.02762 | 32972 ft | 522 kts | 345° |
| 2026-04-30 09:50 | 18.79963 | 115.01256 | 32967 ft | 522 kts | 345° |
| 2026-04-30 09:51 | 18.87084 | 114.99750 | 32962 ft | 522 kts | 345° |
| 2026-04-30 09:51 | 18.94201 | 114.98244 | 32963 ft | 521 kts | 345° |
| 2026-04-30 09:52 | 19.01314 | 114.96737 | 32978 ft | 522 kts | 345° |
| 2026-04-30 09:52 | 19.08429 | 114.95228 | 32973 ft | 521 kts | 345° |
| 2026-04-30 09:53 | 19.15537 | 114.93720 | 32967 ft | 521 kts | 345° |
| 2026-04-30 09:53 | 19.22639 | 114.92212 | 32972 ft | 521 kts | 345° |
| 2026-04-30 09:54 | 19.29741 | 114.90702 | 32970 ft | 520 kts | 345° |
| 2026-04-30 09:54 | 19.36841 | 114.89191 | 32982 ft | 520 kts | 345° |
| 2026-04-30 09:55 | 19.43938 | 114.87679 | 32967 ft | 520 kts | 345° |
| 2026-04-30 09:55 | 19.51026 | 114.86169 | 32980 ft | 520 kts | 345° |
| 2026-04-30 09:56 | 19.58119 | 114.84655 | 32980 ft | 520 kts | 345° |
| 2026-04-30 09:56 | 19.65206 | 114.83142 | 32984 ft | 519 kts | 345° |
| 2026-04-30 09:57 | 19.72292 | 114.81627 | 32977 ft | 519 kts | 345° |
| 2026-04-30 09:57 | 19.79372 | 114.80113 | 32978 ft | 519 kts | 345° |
| 2026-04-30 09:58 | 19.86455 | 114.78596 | 32986 ft | 519 kts | 345° |
| 2026-04-30 09:58 | 19.93534 | 114.77079 | 32989 ft | 519 kts | 345° |
| 2026-04-30 09:59 | 20.07630 | 114.74055 | 32983 ft | 513 kts | 345° |
| 2026-04-30 10:00 | 20.18102 | 114.71804 | 32985 ft | 511 kts | 345° |
| 2026-04-30 10:01 | 20.28550 | 114.69554 | 32991 ft | 511 kts | 345° |
| 2026-04-30 10:02 | 20.38967 | 114.67308 | 32988 ft | 512 kts | 345° |
| 2026-04-30 10:02 | 20.45956 | 114.65800 | 32990 ft | 513 kts | 345° |
| 2026-04-30 10:03 | 20.52950 | 114.64289 | 32992 ft | 513 kts | 345° |
| 2026-04-30 10:03 | 20.59951 | 114.62776 | 33011 ft | 513 kts | 345° |
| 2026-04-30 10:04 | 20.66936 | 114.61265 | 32999 ft | 511 kts | 345° |
| 2026-04-30 10:04 | 20.73890 | 114.59759 | 32997 ft | 509 kts | 345° |
| 2026-04-30 10:05 | 20.80829 | 114.58255 | 33000 ft | 508 kts | 345° |
| 2026-04-30 10:05 | 20.87753 | 114.56752 | 32999 ft | 508 kts | 345° |
| 2026-04-30 10:06 | 20.93510 | 114.55501 | 33012 ft | 507 kts | 345° |
| 2026-04-30 10:06 | 21.00336 | 114.54021 | 32613 ft | 493 kts | 344° |
| 2026-04-30 10:06 | 21.03721 | 114.53285 | 31597 ft | 497 kts | 345° |
| 2026-04-30 10:07 | 21.07113 | 114.52545 | 30605 ft | 499 kts | 345° |
| 2026-04-30 10:07 | 21.10524 | 114.51800 | 29732 ft | 498 kts | 345° |
| 2026-04-30 10:07 | 21.13902 | 114.51064 | 28946 ft | 494 kts | 345° |
| 2026-04-30 10:07 | 21.17248 | 114.50336 | 28206 ft | 489 kts | 345° |
| 2026-04-30 10:08 | 21.20569 | 114.49614 | 27500 ft | 485 kts | 345° |
| 2026-04-30 10:08 | 21.23861 | 114.48897 | 26825 ft | 480 kts | 345° |
| 2026-04-30 10:08 | 21.27125 | 114.48185 | 26141 ft | 476 kts | 345° |
| 2026-04-30 10:08 | 21.30356 | 114.47479 | 25450 ft | 473 kts | 345° |
| 2026-04-30 10:09 | 21.33570 | 114.46777 | 24764 ft | 470 kts | 345° |
| 2026-04-30 10:09 | 21.36769 | 114.46077 | 24088 ft | 467 kts | 345° |
| 2026-04-30 10:09 | 21.39951 | 114.45381 | 23381 ft | 465 kts | 345° |
| 2026-04-30 10:09 | 21.43109 | 114.44690 | 22630 ft | 462 kts | 345° |
| 2026-04-30 10:10 | 21.46247 | 114.44003 | 21946 ft | 457 kts | 345° |
| 2026-04-30 10:10 | 21.49349 | 114.43325 | 21295 ft | 453 kts | 345° |
| 2026-04-30 10:10 | 21.52421 | 114.42653 | 20651 ft | 449 kts | 345° |
| 2026-04-30 10:10 | 21.55467 | 114.41986 | 20025 ft | 445 kts | 345° |
| 2026-04-30 10:11 | 21.58492 | 114.41323 | 19375 ft | 442 kts | 345° |
| 2026-04-30 10:11 | 21.61487 | 114.40666 | 18798 ft | 438 kts | 344° |
| 2026-04-30 10:11 | 21.64452 | 114.40015 | 18300 ft | 432 kts | 344° |
| 2026-04-30 10:11 | 21.67368 | 114.39376 | 17808 ft | 424 kts | 344° |
| 2026-04-30 10:12 | 21.70244 | 114.38745 | 16987 ft | 424 kts | 345° |
| 2026-04-30 10:12 | 21.73137 | 114.38107 | 16275 ft | 422 kts | 345° |
| 2026-04-30 10:12 | 21.75989 | 114.37480 | 15821 ft | 414 kts | 345° |
| 2026-04-30 10:12 | 21.78785 | 114.36867 | 15382 ft | 406 kts | 345° |
| 2026-04-30 10:13 | 21.81538 | 114.36262 | 14854 ft | 402 kts | 345° |
| 2026-04-30 10:13 | 21.84253 | 114.35665 | 14461 ft | 394 kts | 345° |
| 2026-04-30 10:13 | 21.86914 | 114.35081 | 14082 ft | 387 kts | 344° |
| 2026-04-30 10:13 | 21.89536 | 114.34503 | 13584 ft | 383 kts | 344° |
| 2026-04-30 10:14 | 21.92141 | 114.33928 | 12984 ft | 381 kts | 344° |
| 2026-04-30 10:14 | 21.94738 | 114.33354 | 12394 ft | 380 kts | 345° |
| 2026-04-30 10:14 | 21.99833 | 114.32232 | 11788 ft | 362 kts | 344° |
| 2026-04-30 10:15 | 22.02251 | 114.31702 | 11689 ft | 348 kts | 344° |
| 2026-04-30 10:15 | 22.04580 | 114.31190 | 11607 ft | 335 kts | 344° |
| 2026-04-30 10:15 | 22.06814 | 114.30698 | 11525 ft | 322 kts | 344° |
| 2026-04-30 10:15 | 22.08905 | 114.30237 | 11450 ft | 311 kts | 344° |
| 2026-04-30 10:16 | 22.10991 | 114.29776 | 11351 ft | 300 kts | 343° |
| 2026-04-30 10:16 | 22.13003 | 114.29331 | 11226 ft | 291 kts | 343° |
| 2026-04-30 10:16 | 22.14963 | 114.28897 | 11013 ft | 285 kts | 343° |
| 2026-04-30 10:17 | 22.18843 | 114.28033 | 10366 ft | 285 kts | 343° |
| 2026-04-30 10:17 | 22.22709 | 114.27175 | 9749 ft | 282 kts | 344° |
| 2026-04-30 10:17 | 22.24626 | 114.26750 | 9436 ft | 281 kts | 344° |
| 2026-04-30 10:18 | 22.26534 | 114.26328 | 9130 ft | 279 kts | 344° |
| 2026-04-30 10:18 | 22.28417 | 114.25911 | 8763 ft | 272 kts | 344° |
| 2026-04-30 10:18 | 22.30221 | 114.25515 | 8447 ft | 260 kts | 344° |
| 2026-04-30 10:19 | 22.33532 | 114.24788 | 8111 ft | 227 kts | 343° |
| 2026-04-30 10:19 | 22.35031 | 114.24456 | 7915 ft | 213 kts | 343° |
| 2026-04-30 10:19 | 22.36436 | 114.24146 | 7670 ft | 202 kts | 343° |
| 2026-04-30 10:19 | 22.37796 | 114.23845 | 7280 ft | 198 kts | 343° |
| 2026-04-30 10:20 | 22.39129 | 114.23549 | 6902 ft | 194 kts | 342° |
| 2026-04-30 10:20 | 22.40790 | 114.21623 | 5920 ft | 190 kts | 269° |
| 2026-04-30 10:20 | 22.40582 | 114.20230 | 5623 ft | 186 kts | 259° |
| 2026-04-30 10:21 | 22.40298 | 114.18858 | 5180 ft | 189 kts | 257° |
| 2026-04-30 10:21 | 22.39941 | 114.17506 | 4879 ft | 185 kts | 255° |
| 2026-04-30 10:21 | 22.39549 | 114.16197 | 4643 ft | 184 kts | 254° |
| 2026-04-30 10:21 | 22.39128 | 114.14856 | 4368 ft | 192 kts | 254° |
| 2026-04-30 10:22 | 22.38695 | 114.13491 | 4092 ft | 192 kts | 253° |
| 2026-04-30 10:22 | 22.38258 | 114.12122 | 3835 ft | 195 kts | 253° |
| 2026-04-30 10:22 | 22.37814 | 114.10739 | 3594 ft | 196 kts | 253° |
| 2026-04-30 10:22 | 22.37361 | 114.09334 | 3257 ft | 197 kts | 254° |
| 2026-04-30 10:23 | 22.36917 | 114.07943 | 3122 ft | 195 kts | 252° |
| 2026-04-30 10:23 | 22.36472 | 114.06554 | 2992 ft | 198 kts | 253° |
| 2026-04-30 10:23 | 22.36021 | 114.05147 | 2764 ft | 196 kts | 252° |
| 2026-04-30 10:23 | 22.35584 | 114.03788 | 2417 ft | 188 kts | 252° |
| 2026-04-30 10:24 | 22.35167 | 114.02489 | 2059 ft | 177 kts | 252° |
| 2026-04-30 10:24 | 22.34766 | 114.01238 | 1744 ft | 178 kts | 254° |
| 2026-04-30 10:24 | 22.34364 | 113.99981 | 1383 ft | 171 kts | 252° |
| 2026-04-30 10:24 | 22.33993 | 113.98826 | 1184 ft | 155 kts | 253° |
| 2026-04-30 10:25 | 22.33646 | 113.97739 | 989 ft | 151 kts | 252° |
| 2026-04-30 10:25 | 22.33302 | 113.96673 | 797 ft | 148 kts | 255° |
| 2026-04-30 10:25 | 22.32976 | 113.95651 | 617 ft | 139 kts | 254° |
| 2026-04-30 10:25 | 22.32652 | 113.94648 | 424 ft | 142 kts | 252° |
| 2026-04-30 10:26 | 22.32330 | 113.93660 | 241 ft | 138 kts | 253° |
| 2026-04-30 10:26 | 22.32015 | 113.92679 | 93 ft | 139 kts | 255° |
| 2026-04-30 10:26 | 22.31732 | 113.91782 | 40 ft | 125 kts | 253° |
| 2026-04-30 10:26 | 22.31491 | 113.91043 | 37 ft | 90 kts | 251° |
| 2026-04-30 10:27 | 22.31380 | 113.90694 | 36 ft | 64 kts | 251° |
| 2026-04-30 10:27 | 22.31267 | 113.90365 | 36 ft | 37 kts | 243° |
| 2026-04-30 10:27 | 22.31134 | 113.90192 | 35 ft | 15 kts | 222° |
| 2026-04-30 10:27 | 22.31058 | 113.90180 | 37 ft | 11 kts | 141° |
| 2026-04-30 10:28 | 22.31058 | 113.90263 | 37 ft | 15 kts | 72° |
| 2026-04-30 10:28 | 22.31112 | 113.90429 | 37 ft | 28 kts | 71° |
| 2026-04-30 10:28 | 22.31176 | 113.90624 | 37 ft | 26 kts | 70° |
| 2026-04-30 10:28 | 22.31235 | 113.90806 | 37 ft | 26 kts | 71° |
| 2026-04-30 10:29 | 22.31292 | 113.90988 | 37 ft | 25 kts | 71° |
| 2026-04-30 10:29 | 22.31337 | 113.91131 | 37 ft | 20 kts | 71° |
| 2026-04-30 10:29 | 22.31383 | 113.91273 | 37 ft | 20 kts | 71° |
| 2026-04-30 10:29 | 22.31429 | 113.91416 | 37 ft | 20 kts | 70° |
| 2026-04-30 10:30 | 22.31476 | 113.91560 | 37 ft | 20 kts | 71° |
| 2026-04-30 10:30 | 22.31522 | 113.91703 | 37 ft | 20 kts | 71° |
| 2026-04-30 10:30 | 22.31568 | 113.91847 | 37 ft | 20 kts | 70° |
| 2026-04-30 10:30 | 22.31615 | 113.91991 | 37 ft | 20 kts | 70° |
| 2026-04-30 10:31 | 22.31662 | 113.92134 | 37 ft | 20 kts | 70° |
| 2026-04-30 10:31 | 22.31708 | 113.92278 | 37 ft | 20 kts | 71° |
| 2026-04-30 10:31 | 22.31737 | 113.92370 | 37 ft | 8 kts | 71° |
| 2026-04-30 10:31 | 22.31715 | 113.92422 | 37 ft | 9 kts | 151° |
| 2026-04-30 10:32 | 22.31655 | 113.92446 | 37 ft | 10 kts | 160° |
| 2026-04-30 10:32 | 22.31608 | 113.92494 | 37 ft | 10 kts | 112° |
| 2026-04-30 10:32 | 22.31578 | 113.92569 | 37 ft | 10 kts | 114° |
| 2026-04-30 10:32 | 22.31539 | 113.92602 | 37 ft | 7 kts | 187° |
| 2026-04-30 10:33 | 22.31494 | 113.92581 | 37 ft | 4 kts | 206° |
| 2026-04-30 10:33 | 22.31477 | 113.92572 | 37 ft | 1 kts | 206° |
| 2026-04-30 10:33 | 22.31471 | 113.92569 | 37 ft | 1 kts | 206° |